Wetterdaten: Mittwoch, 01.10.2014
Datum Zeit Temp. Aussen +5cm Feuchte Auss Luftdruck Regen Sonnenschein Regendauer Solar Windben
01.10.2014 00:00 13,3 C 11,7 C 94 % 1025,3 hPa 0,0 l/m 0 min 0 min 0 W/m 0,0 km/h (0 Bft)
01.10.2014 00:02 13,3 C 11,7 C 94 % 1025,3 hPa 0,0 l/m 0 min 0 min 0 W/m 2,1 km/h (1 Bft)
01.10.2014 00:05 13,2 C 11,7 C 94 % 1025,3 hPa 0,0 l/m 0 min 0 min 0 W/m 2,1 km/h (1 Bft)
01.10.2014 00:06 13,2 C 11,7 C 94 % 1025,3 hPa 0,0 l/m 0 min 0 min 0 W/m 2,1 km/h (1 Bft)
01.10.2014 00:08 13,2 C 11,7 C 94 % 1025,3 hPa 0,0 l/m 0 min 0 min 0 W/m 0,0 km/h (0 Bft)
01.10.2014 00:10 13,2 C 11,7 C 94 % 1025,3 hPa 0,0 l/m 0 min 0 min 0 W/m 0,0 km/h (0 Bft)
01.10.2014 00:12 13,2 C 11,7 C 94 % 1025,3 hPa 0,0 l/m 0 min 0 min 0 W/m 0,0 km/h (0 Bft)
01.10.2014 00:14 13,1 C 11,7 C 94 % 1025,3 hPa 0,0 l/m 0 min 0 min 0 W/m 0,0 km/h (0 Bft)
01.10.2014 00:16 13,1 C 11,7 C 94 % 1025,3 hPa 0,0 l/m 0 min 0 min 0 W/m 0,0 km/h (0 Bft)
01.10.2014 00:18 13,1 C 11,7 C 94 % 1025,3 hPa 0,0 l/m 0 min 0 min 0 W/m 0,0 km/h (0 Bft)
01.10.2014 00:20 13,1 C 11,7 C 94 % 1025,2 hPa 0,0 l/m 0 min 0 min 0 W/m 0,0 km/h (0 Bft)
01.10.2014 00:22 13,1 C 11,7 C 94 % 1025,3 hPa 0,0 l/m 0 min 0 min 0 W/m 0,0 km/h (0 Bft)
01.10.2014 00:24 13,1 C 11,7 C 94 % 1025,3 hPa 0,0 l/m 0 min 0 min 0 W/m 0,0 km/h (0 Bft)
01.10.2014 00:26 13,1 C 11,7 C 94 % 1025,3 hPa 0,0 l/m 0 min 0 min 0 W/m 0,0 km/h (0 Bft)
01.10.2014 00:28 13,1 C 11,7 C 94 % 1025,3 hPa 0,0 l/m 0 min 0 min 0 W/m 0,0 km/h (0 Bft)
01.10.2014 00:30 13,1 C 11,7 C 94 % 1025,3 hPa 0,0 l/m 0 min 0 min 0 W/m 0,0 km/h (0 Bft)
01.10.2014 00:32 13,1 C 11,7 C 95 % 1025,3 hPa 0,0 l/m 0 min 0 min 0 W/m 0,0 km/h (0 Bft)
01.10.2014 00:34 13,1 C 11,7 C 95 % 1025,3 hPa 0,0 l/m 0 min 0 min 0 W/m 2,1 km/h (1 Bft)
01.10.2014 00:36 13,1 C 11,7 C 95 % 1025,2 hPa 0,0 l/m 0 min 0 min 0 W/m 4,2 km/h (1 Bft)
01.10.2014 00:38 13,1 C 11,7 C 95 % 1025,2 hPa 0,0 l/m 0 min 0 min 0 W/m 6,3 km/h (2 Bft)
01.10.2014 00:40 13,1 C 11,7 C 95 % 1025,2 hPa 0,0 l/m 0 min 0 min 0 W/m 4,2 km/h (1 Bft)
01.10.2014 00:42 13,1 C 11,7 C 95 % 1025,2 hPa 0,0 l/m 0 min 0 min 0 W/m 4,2 km/h (1 Bft)
01.10.2014 00:44 13,1 C 11,7 C 95 % 1025,2 hPa 0,0 l/m 0 min 0 min 0 W/m 4,2 km/h (1 Bft)
01.10.2014 00:46 13,1 C 11,7 C 95 % 1025,2 hPa 0,0 l/m 0 min 0 min 0 W/m 4,2 km/h (1 Bft)
01.10.2014 00:48 13,1 C 11,7 C 95 % 1025,2 hPa 0,0 l/m 0 min 0 min 0 W/m 4,2 km/h (1 Bft)
01.10.2014 00:50 13,1 C 11,7 C 95 % 1025,2 hPa 0,0 l/m 0 min 0 min 0 W/m 4,2 km/h (1 Bft)
01.10.2014 00:52 13,0 C 11,7 C 95 % 1025,2 hPa 0,0 l/m 0 min 0 min 0 W/m 4,2 km/h (1 Bft)
01.10.2014 00:54 13,0 C 11,7 C 95 % 1025,2 hPa 0,0 l/m 0 min 0 min 0 W/m 2,1 km/h (1 Bft)
01.10.2014 00:56 13,0 C 11,7 C 95 % 1025,2 hPa 0,0 l/m 0 min 0 min 0 W/m 4,2 km/h (1 Bft)
01.10.2014 00:58 13,0 C 11,7 C 95 % 1025,2 hPa 0,0 l/m 0 min 0 min 0 W/m 4,2 km/h (1 Bft)
01.10.2014 01:00 13,0 C 11,7 C 95 % 1025,3 hPa 0,0 l/m 0 min 0 min 0 W/m 2,1 km/h (1 Bft)
01.10.2014 01:02 12,9 C 11,7 C 95 % 1025,3 hPa 0,0 l/m 0 min 0 min 0 W/m 4,2 km/h (1 Bft)
01.10.2014 01:04 12,9 C 11,7 C 95 % 1025,3 hPa 0,0 l/m 0 min 0 min 0 W/m 4,2 km/h (1 Bft)
01.10.2014 01:06 12,9 C 11,7 C 95 % 1025,3 hPa 0,0 l/m 0 min 0 min 0 W/m 4,2 km/h (1 Bft)
01.10.2014 01:08 12,9 C 11,7 C 95 % 1025,3 hPa 0,0 l/m 0 min 0 min 0 W/m 4,2 km/h (1 Bft)
01.10.2014 01:10 12,9 C 11,7 C 95 % 1025,2 hPa 0,0 l/m 0 min 0 min 0 W/m 4,2 km/h (1 Bft)
01.10.2014 01:12 12,9 C 11,7 C 95 % 1025,2 hPa 0,0 l/m 0 min 0 min 0 W/m 4,2 km/h (1 Bft)
01.10.2014 01:14 12,9 C 11,7 C 95 % 1025,3 hPa 0,0 l/m 0 min 0 min 0 W/m 4,2 km/h (1 Bft)
01.10.2014 01:16 12,9 C 12,2 C 95 % 1025,2 hPa 0,0 l/m 0 min 0 min 0 W/m 2,1 km/h (1 Bft)
01.10.2014 01:18 12,9 C 12,2 C 95 % 1025,3 hPa 0,0 l/m 0 min 0 min 0 W/m 2,1 km/h (1 Bft)
01.10.2014 01:20 12,9 C 12,2 C 95 % 1025,3 hPa 0,0 l/m 0 min 0 min 0 W/m 2,1 km/h (1 Bft)
01.10.2014 01:22 12,9 C 12,2 C 95 % 1025,3 hPa 0,0 l/m 0 min 0 min 0 W/m 2,1 km/h (1 Bft)
01.10.2014 01:24 12,9 C 12,2 C 95 % 1025,3 hPa 0,0 l/m 0 min 0 min 0 W/m 4,2 km/h (1 Bft)
01.10.2014 01:26 12,9 C 12,2 C 95 % 1025,3 hPa 0,0 l/m 0 min 0 min 0 W/m 6,3 km/h (2 Bft)
01.10.2014 01:28 13,0 C 12,2 C 95 % 1025,3 hPa 0,0 l/m 0 min 0 min 0 W/m 6,3 km/h (2 Bft)
01.10.2014 01:30 13,0 C 12,2 C 95 % 1025,3 hPa 0,0 l/m 0 min 0 min 0 W/m 4,2 km/h (1 Bft)
01.10.2014 01:32 13,0 C 12,2 C 96 % 1025,3 hPa 0,0 l/m 0 min 0 min 0 W/m 4,2 km/h (1 Bft)
01.10.2014 01:34 13,1 C 12,2 C 96 % 1025,2 hPa 0,0 l/m 0 min 0 min 0 W/m 4,2 km/h (1 Bft)
01.10.2014 01:36 13,1 C 12,2 C 96 % 1025,2 hPa 0,0 l/m 0 min 0 min 0 W/m 4,2 km/h (1 Bft)
01.10.2014 01:38 13,1 C 12,2 C 96 % 1025,2 hPa 0,0 l/m 0 min 0 min 0 W/m 4,2 km/h (1 Bft)
01.10.2014 01:40 13,2 C 12,2 C 96 % 1025,2 hPa 0,0 l/m 0 min 0 min 0 W/m 4,2 km/h (1 Bft)
01.10.2014 01:42 13,2 C 12,8 C 96 % 1025,2 hPa 0,0 l/m 0 min 0 min 0 W/m 6,3 km/h (2 Bft)
01.10.2014 01:44 13,2 C 12,8 C 96 % 1025,2 hPa 0,0 l/m 0 min 0 min 0 W/m 6,3 km/h (2 Bft)
01.10.2014 01:46 13,2 C 12,8 C 96 % 1025,3 hPa 0,0 l/m 0 min 0 min 0 W/m 4,2 km/h (1 Bft)
01.10.2014 01:48 13,2 C 12,8 C 96 % 1025,3 hPa 0,0 l/m 0 min 0 min 0 W/m 4,2 km/h (1 Bft)
01.10.2014 01:50 13,2 C 12,8 C 96 % 1025,3 hPa 0,0 l/m 0 min 0 min 0 W/m 4,2 km/h (1 Bft)
01.10.2014 01:52 13,3 C 12,8 C 96 % 1025,3 hPa 0,0 l/m 0 min 0 min 0 W/m 4,2 km/h (1 Bft)
01.10.2014 01:54 13,3 C 12,8 C 96 % 1025,3 hPa 0,0 l/m 0 min 0 min 0 W/m 4,2 km/h (1 Bft)
01.10.2014 01:56 13,3 C 12,8 C 96 % 1025,3 hPa 0,0 l/m 0 min 0 min 0 W/m 6,3 km/h (2 Bft)
01.10.2014 01:58 13,3 C 12,8 C 96 % 1025,4 hPa 0,0 l/m 0 min 0 min 0 W/m 6,3 km/h (2 Bft)
01.10.2014 02:00 13,3 C 12,8 C 96 % 1025,6 hPa 0,0 l/m 0 min 0 min 0 W/m 14,6 km/h (3 Bft)
01.10.2014 02:02 13,4 C 12,8 C 96 % 1025,6 hPa 0,0 l/m 0 min 2 min 0 W/m 8,4 km/h (2 Bft)
01.10.2014 02:04 13,4 C 12,8 C 96 % 1025,7 hPa 0,2 l/m 0 min 2 min 0 W/m 14,6 km/h (3 Bft)
01.10.2014 02:06 13,4 C 12,8 C 96 % 1025,7 hPa 0,0 l/m 0 min 2 min 0 W/m 8,4 km/h (2 Bft)
01.10.2014 02:08 13,5 C 12,8 C 96 % 1025,7 hPa 0,0 l/m 0 min 2 min 0 W/m 8,4 km/h (2 Bft)
01.10.2014 02:10 13,5 C 12,8 C 96 % 1025,6 hPa 0,0 l/m 0 min 2 min 0 W/m 8,4 km/h (2 Bft)
01.10.2014 02:12 13,6 C 12,8 C 96 % 1025,6 hPa 0,0 l/m 0 min 2 min 0 W/m 6,3 km/h (2 Bft)
01.10.2014 02:14 13,6 C 12,8 C 96 % 1025,6 hPa 0,0 l/m 0 min 2 min 0 W/m 8,4 km/h (2 Bft)
01.10.2014 02:16 13,6 C 12,8 C 97 % 1025,5 hPa 0,0 l/m 0 min 2 min 0 W/m 4,2 km/h (1 Bft)
01.10.2014 02:18 13,6 C 12,8 C 97 % 1025,6 hPa 0,0 l/m 0 min 2 min 0 W/m 4,2 km/h (1 Bft)
01.10.2014 02:20 13,6 C 12,8 C 97 % 1025,5 hPa 0,2 l/m 0 min 2 min 0 W/m 4,2 km/h (1 Bft)
01.10.2014 02:22 13,6 C 12,8 C 97 % 1025,5 hPa 0,0 l/m 0 min 2 min 0 W/m 2,1 km/h (1 Bft)
01.10.2014 02:24 13,7 C 12,8 C 97 % 1025,6 hPa 0,0 l/m 0 min 0 min 0 W/m 2,1 km/h (1 Bft)
01.10.2014 02:26 13,7 C 12,8 C 97 % 1025,5 hPa 0,0 l/m 0 min 0 min 0 W/m 4,2 km/h (1 Bft)
01.10.2014 02:28 13,7 C 12,8 C 97 % 1025,6 hPa 0,0 l/m 0 min 2 min 0 W/m 4,2 km/h (1 Bft)
01.10.2014 02:30 13,7 C 12,8 C 97 % 1025,6 hPa 0,0 l/m 0 min 0 min 0 W/m 2,1 km/h (1 Bft)
01.10.2014 02:32 13,7 C 12,8 C 97 % 1025,5 hPa 0,0 l/m 0 min 0 min 0 W/m 2,1 km/h (1 Bft)
01.10.2014 02:34 13,7 C 12,8 C 97 % 1025,5 hPa 0,0 l/m 0 min 2 min 0 W/m 2,1 km/h (1 Bft)
01.10.2014 02:36 13,8 C 12,8 C 97 % 1025,5 hPa 0,0 l/m 0 min 2 min 0 W/m 2,1 km/h (1 Bft)
01.10.2014 02:38 13,8 C 12,8 C 97 % 1025,5 hPa 0,0 l/m 0 min 2 min 0 W/m 4,2 km/h (1 Bft)
01.10.2014 02:40 13,8 C 13,3 C 97 % 1025,5 hPa 0,2 l/m 0 min 2 min 0 W/m 4,2 km/h (1 Bft)
01.10.2014 02:42 13,9 C 13,3 C 97 % 1025,5 hPa 0,0 l/m 0 min 2 min 0 W/m 4,2 km/h (1 Bft)
01.10.2014 02:44 13,9 C 13,3 C 97 % 1025,4 hPa 0,0 l/m 0 min 2 min 0 W/m 2,1 km/h (1 Bft)
01.10.2014 02:46 13,9 C 13,3 C 97 % 1025,4 hPa 0,0 l/m 0 min 0 min 0 W/m 2,1 km/h (1 Bft)
01.10.2014 02:48 14,0 C 13,3 C 97 % 1025,4 hPa 0,0 l/m 0 min 0 min 0 W/m 2,1 km/h (1 Bft)
01.10.2014 02:50 14,0 C 13,3 C 97 % 1025,4 hPa 0,0 l/m 0 min 0 min 0 W/m 2,1 km/h (1 Bft)
01.10.2014 02:52 14,0 C 13,3 C 97 % 1025,4 hPa 0,0 l/m 0 min 0 min 0 W/m 2,1 km/h (1 Bft)
01.10.2014 02:54 14,1 C 13,3 C 97 % 1025,4 hPa 0,0 l/m 0 min 0 min 0 W/m 0,0 km/h (0 Bft)
01.10.2014 02:56 14,1 C 13,3 C 97 % 1025,4 hPa 0,0 l/m 0 min 0 min 0 W/m 0,0 km/h (0 Bft)
01.10.2014 02:58 14,1 C 13,3 C 97 % 1025,4 hPa 0,0 l/m 0 min 0 min 0 W/m 0,0 km/h (0 Bft)
01.10.2014 03:00 14,2 C 13,3 C 97 % 1025,4 hPa 0,0 l/m 0 min 0 min 0 W/m 4,2 km/h (1 Bft)
01.10.2014 03:02 14,2 C 13,3 C 97 % 1025,6 hPa 0,0 l/m 0 min 2 min 0 W/m 4,2 km/h (1 Bft)
01.10.2014 03:04 14,2 C 13,3 C 97 % 1025,5 hPa 0,0 l/m 0 min 2 min 0 W/m 2,1 km/h (1 Bft)
01.10.2014 03:06 14,2 C 13,3 C 97 % 1025,5 hPa 0,0 l/m 0 min 2 min 0 W/m 6,3 km/h (2 Bft)
01.10.2014 03:08 14,2 C 13,3 C 97 % 1025,4 hPa 0,0 l/m 0 min 2 min 0 W/m 6,3 km/h (2 Bft)
01.10.2014 03:10 14,2 C 13,3 C 97 % 1025,4 hPa 0,0 l/m 0 min 0 min 0 W/m 4,2 km/h (1 Bft)
01.10.2014 03:12 14,2 C 13,3 C 97 % 1025,4 hPa 0,0 l/m 0 min 0 min 0 W/m 4,2 km/h (1 Bft)
01.10.2014 03:14 14,2 C 13,3 C 97 % 1025,4 hPa 0,0 l/m 0 min 0 min 0 W/m 4,2 km/h (1 Bft)
01.10.2014 03:16 14,2 C 13,3 C 97 % 1025,4 hPa 0,0 l/m 0 min 0 min 0 W/m 6,3 km/h (2 Bft)
01.10.2014 03:18 14,2 C 13,3 C 97 % 1025,4 hPa 0,0 l/m 0 min 0 min 0 W/m 6,3 km/h (2 Bft)
01.10.2014 03:20 14,3 C 13,3 C 97 % 1025,4 hPa 0,0 l/m 0 min 0 min 0 W/m 4,2 km/h (1 Bft)
01.10.2014 03:22 14,4 C 13,3 C 97 % 1025,5 hPa 0,0 l/m 0 min 0 min 0 W/m 6,3 km/h (2 Bft)
01.10.2014 03:24 14,4 C 13,3 C 97 % 1025,5 hPa 0,0 l/m 0 min 0 min 0 W/m 6,3 km/h (2 Bft)
01.10.2014 03:26 14,4 C 13,3 C 97 % 1025,5 hPa 0,0 l/m 0 min 0 min 0 W/m 6,3 km/h (2 Bft)
01.10.2014 03:28 14,4 C 13,3 C 97 % 1025,4 hPa 0,0 l/m 0 min 0 min 0 W/m 10,5 km/h (2 Bft)
01.10.2014 03:30 14,4 C 13,3 C 97 % 1025,5 hPa 0,0 l/m 0 min 0 min 0 W/m 6,3 km/h (2 Bft)
01.10.2014 03:32 14,4 C 13,3 C 97 % 1025,4 hPa 0,0 l/m 0 min 0 min 0 W/m 6,3 km/h (2 Bft)
01.10.2014 03:34 14,5 C 13,3 C 97 % 1025,4 hPa 0,0 l/m 0 min 0 min 0 W/m 6,3 km/h (2 Bft)
01.10.2014 03:36 14,5 C 13,3 C 97 % 1025,4 hPa 0,0 l/m 0 min 0 min 0 W/m 8,4 km/h (2 Bft)
01.10.2014 03:38 14,6 C 13,3 C 98 % 1025,4 hPa 0,0 l/m 0 min 0 min 0 W/m 10,5 km/h (2 Bft)
01.10.2014 03:40 14,6 C 13,3 C 98 % 1025,4 hPa 0,0 l/m 0 min 0 min 0 W/m 8,4 km/h (2 Bft)
01.10.2014 03:42 14,6 C 13,3 C 98 % 1025,3 hPa 0,0 l/m 0 min 0 min 0 W/m 10,5 km/h (2 Bft)
01.10.2014 03:44 14,6 C 13,3 C 98 % 1025,3 hPa 0,0 l/m 0 min 0 min 0 W/m 6,3 km/h (2 Bft)
01.10.2014 03:46 14,6 C 13,3 C 98 % 1025,3 hPa 0,0 l/m 0 min 0 min 0 W/m 4,2 km/h (1 Bft)
01.10.2014 03:48 14,6 C 13,3 C 98 % 1025,3 hPa 0,0 l/m 0 min 0 min 0 W/m 4,2 km/h (1 Bft)
01.10.2014 03:50 14,6 C 13,3 C 98 % 1025,3 hPa 0,0 l/m 0 min 0 min 0 W/m 4,2 km/h (1 Bft)
01.10.2014 03:52 14,6 C 13,3 C 98 % 1025,3 hPa 0,0 l/m 0 min 0 min 0 W/m 2,1 km/h (1 Bft)
01.10.2014 03:54 14,6 C 13,3 C 98 % 1025,5 hPa 0,0 l/m 0 min 0 min 0 W/m 6,3 km/h (2 Bft)
01.10.2014 03:56 14,6 C 13,3 C 98 % 1025,5 hPa 0,0 l/m 0 min 0 min 0 W/m 6,3 km/h (2 Bft)
01.10.2014 03:58 14,6 C 13,3 C 98 % 1025,4 hPa 0,0 l/m 0 min 0 min 0 W/m 6,3 km/h (2 Bft)
01.10.2014 04:00 14,6 C 13,3 C 98 % 1025,3 hPa 0,0 l/m 0 min 0 min 0 W/m 8,4 km/h (2 Bft)
01.10.2014 04:02 14,6 C 13,3 C 98 % 1025,4 hPa 0,0 l/m 0 min 0 min 0 W/m 4,2 km/h (1 Bft)
01.10.2014 04:04 14,5 C 13,3 C 98 % 1025,3 hPa 0,0 l/m 0 min 0 min 0 W/m 6,3 km/h (2 Bft)
01.10.2014 04:06 14,5 C 13,3 C 98 % 1025,4 hPa 0,0 l/m 0 min 0 min 0 W/m 8,4 km/h (2 Bft)
01.10.2014 04:08 14,5 C 13,3 C 98 % 1025,4 hPa 0,0 l/m 0 min 0 min 0 W/m 6,3 km/h (2 Bft)
01.10.2014 04:10 14,5 C 13,3 C 98 % 1025,4 hPa 0,0 l/m 0 min 0 min 0 W/m 6,3 km/h (2 Bft)
01.10.2014 04:12 14,5 C 13,3 C 98 % 1025,4 hPa 0,0 l/m 0 min 0 min 0 W/m 4,2 km/h (1 Bft)
01.10.2014 04:14 14,5 C 13,3 C 98 % 1025,5 hPa 0,0 l/m 0 min 0 min 0 W/m 6,3 km/h (2 Bft)
01.10.2014 04:16 14,5 C 13,3 C 98 % 1025,5 hPa 0,0 l/m 0 min 0 min 0 W/m 6,3 km/h (2 Bft)
01.10.2014 04:18 14,5 C 13,3 C 98 % 1025,4 hPa 0,0 l/m 0 min 0 min 0 W/m 6,3 km/h (2 Bft)
01.10.2014 04:20 14,5 C 13,3 C 98 % 1025,4 hPa 0,0 l/m 0 min 0 min 0 W/m 4,2 km/h (1 Bft)
01.10.2014 04:22 14,5 C 13,3 C 98 % 1025,4 hPa 0,0 l/m 0 min 0 min 0 W/m 4,2 km/h (1 Bft)
01.10.2014 04:24 14,5 C 13,3 C 98 % 1025,4 hPa 0,0 l/m 0 min 0 min 0 W/m 6,3 km/h (2 Bft)
01.10.2014 04:26 14,5 C 13,3 C 98 % 1025,5 hPa 0,0 l/m 0 min 0 min 0 W/m 6,3 km/h (2 Bft)
01.10.2014 04:28 14,5 C 13,3 C 98 % 1025,5 hPa 0,0 l/m 0 min 0 min 0 W/m 6,3 km/h (2 Bft)
01.10.2014 04:30 14,5 C 13,3 C 98 % 1025,5 hPa 0,0 l/m 0 min 0 min 0 W/m 8,4 km/h (2 Bft)
01.10.2014 04:32 14,5 C 13,3 C 98 % 1025,5 hPa 0,0 l/m 0 min 0 min 0 W/m 6,3 km/h (2 Bft)
01.10.2014 04:34 14,5 C 13,3 C 98 % 1025,4 hPa 0,0 l/m 0 min 0 min 0 W/m 4,2 km/h (1 Bft)
01.10.2014 04:36 14,5 C 13,3 C 98 % 1025,4 hPa 0,0 l/m 0 min 0 min 0 W/m 4,2 km/h (1 Bft)
01.10.2014 04:38 14,5 C 13,3 C 98 % 1025,3 hPa 0,0 l/m 0 min 0 min 0 W/m 6,3 km/h (2 Bft)
01.10.2014 04:40 14,5 C 13,3 C 98 % 1025,3 hPa 0,0 l/m 0 min 0 min 0 W/m 6,3 km/h (2 Bft)
01.10.2014 04:42 14,5 C 13,3 C 98 % 1025,3 hPa 0,0 l/m 0 min 0 min 0 W/m 6,3 km/h (2 Bft)
01.10.2014 04:44 14,5 C 13,3 C 98 % 1025,3 hPa 0,0 l/m 0 min 0 min 0 W/m 4,2 km/h (1 Bft)
01.10.2014 04:46 14,5 C 13,3 C 98 % 1025,2 hPa 0,0 l/m 0 min 0 min 0 W/m 8,4 km/h (2 Bft)
01.10.2014 04:48 14,5 C 13,3 C 98 % 1025,3 hPa 0,0 l/m 0 min 0 min 0 W/m 6,3 km/h (2 Bft)
01.10.2014 04:50 14,5 C 13,3 C 98 % 1025,3 hPa 0,0 l/m 0 min 0 min 0 W/m 4,2 km/h (1 Bft)
01.10.2014 04:52 14,5 C 13,3 C 98 % 1025,2 hPa 0,0 l/m 0 min 0 min 0 W/m 6,3 km/h (2 Bft)
01.10.2014 04:54 14,5 C 13,3 C 98 % 1025,2 hPa 0,0 l/m 0 min 0 min 0 W/m 6,3 km/h (2 Bft)
01.10.2014 04:56 14,5 C 13,3 C 98 % 1025,2 hPa 0,0 l/m 0 min 0 min 0 W/m 6,3 km/h (2 Bft)
01.10.2014 04:58 14,6 C 13,3 C 98 % 1025,2 hPa 0,0 l/m 0 min 0 min 0 W/m 6,3 km/h (2 Bft)
01.10.2014 05:00 14,6 C 13,3 C 98 % 1025,2 hPa 0,0 l/m 0 min 0 min 0 W/m 6,3 km/h (2 Bft)
01.10.2014 05:02 14,6 C 13,3 C 98 % 1025,2 hPa 0,0 l/m 0 min 0 min 0 W/m 4,2 km/h (1 Bft)
01.10.2014 05:04 14,6 C 13,3 C 98 % 1025,2 hPa 0,0 l/m 0 min 0 min 0 W/m 4,2 km/h (1 Bft)
01.10.2014 05:06 14,6 C 13,3 C 98 % 1025,2 hPa 0,0 l/m 0 min 0 min 0 W/m 4,2 km/h (1 Bft)
01.10.2014 05:08 14,6 C 12,8 C 98 % 1025,2 hPa 0,0 l/m 0 min 0 min 0 W/m 4,2 km/h (1 Bft)
01.10.2014 05:10 14,5 C 12,8 C 98 % 1025,2 hPa 0,0 l/m 0 min 0 min 0 W/m 6,3 km/h (2 Bft)
01.10.2014 05:12 14,5 C 12,8 C 98 % 1025,2 hPa 0,0 l/m 0 min 0 min 0 W/m 6,3 km/h (2 Bft)
01.10.2014 05:14 14,5 C 12,8 C 98 % 1025,2 hPa 0,0 l/m 0 min 0 min 0 W/m 6,3 km/h (2 Bft)
01.10.2014 05:16 14,5 C 12,8 C 98 % 1025,2 hPa 0,0 l/m 0 min 0 min 0 W/m 6,3 km/h (2 Bft)
01.10.2014 05:18 14,4 C 12,8 C 98 % 1025,2 hPa 0,0 l/m 0 min 0 min 0 W/m 6,3 km/h (2 Bft)
01.10.2014 05:20 14,4 C 12,8 C 98 % 1025,2 hPa 0,0 l/m 0 min 0 min 0 W/m 6,3 km/h (2 Bft)
01.10.2014 05:22 14,4 C 12,8 C 98 % 1025,2 hPa 0,0 l/m 0 min 0 min 0 W/m 8,4 km/h (2 Bft)
01.10.2014 05:24 14,4 C 12,8 C 98 % 1025,2 hPa 0,0 l/m 0 min 0 min 0 W/m 6,3 km/h (2 Bft)
01.10.2014 05:26 14,4 C 12,8 C 98 % 1025,2 hPa 0,0 l/m 0 min 0 min 0 W/m 6,3 km/h (2 Bft)
01.10.2014 05:28 14,4 C 12,8 C 98 % 1025,2 hPa 0,0 l/m 0 min 0 min 0 W/m 6,3 km/h (2 Bft)
01.10.2014 05:30 14,3 C 12,8 C 98 % 1025,2 hPa 0,0 l/m 0 min 0 min 0 W/m 6,3 km/h (2 Bft)
01.10.2014 05:32 14,3 C 12,8 C 98 % 1025,2 hPa 0,0 l/m 0 min 0 min 0 W/m 6,3 km/h (2 Bft)
01.10.2014 05:34 14,3 C 12,8 C 98 % 1025,2 hPa 0,0 l/m 0 min 0 min 0 W/m 6,3 km/h (2 Bft)
01.10.2014 05:36 14,2 C 12,8 C 98 % 1025,2 hPa 0,0 l/m 0 min 0 min 0 W/m 6,3 km/h (2 Bft)
01.10.2014 05:38 14,2 C 12,8 C 98 % 1025,2 hPa 0,0 l/m 0 min 0 min 0 W/m 4,2 km/h (1 Bft)
01.10.2014 05:40 14,2 C 12,8 C 98 % 1025,2 hPa 0,0 l/m 0 min 0 min 0 W/m 6,3 km/h (2 Bft)
01.10.2014 05:42 14,2 C 12,8 C 98 % 1025,2 hPa 0,0 l/m 0 min 0 min 0 W/m 6,3 km/h (2 Bft)
01.10.2014 05:44 14,2 C 12,8 C 98 % 1025,1 hPa 0,0 l/m 0 min 0 min 0 W/m 4,2 km/h (1 Bft)
01.10.2014 05:46 14,2 C 12,2 C 98 % 1025,2 hPa 0,0 l/m 0 min 0 min 0 W/m 6,3 km/h (2 Bft)
01.10.2014 05:48 14,2 C 12,2 C 98 % 1025,2 hPa 0,0 l/m 0 min 0 min 0 W/m 6,3 km/h (2 Bft)
01.10.2014 05:50 14,2 C 12,2 C 98 % 1025,2 hPa 0,2 l/m 0 min 0 min 0 W/m 4,2 km/h (1 Bft)
01.10.2014 05:52 14,2 C 12,2 C 98 % 1025,2 hPa 0,0 l/m 0 min 0 min 0 W/m 4,2 km/h (1 Bft)
01.10.2014 05:54 14,2 C 12,2 C 98 % 1025,2 hPa 0,0 l/m 0 min 0 min 0 W/m 4,2 km/h (1 Bft)
01.10.2014 05:56 14,2 C 12,2 C 98 % 1025,2 hPa 0,0 l/m 0 min 0 min 0 W/m 4,2 km/h (1 Bft)
01.10.2014 05:58 14,2 C 12,2 C 98 % 1025,1 hPa 0,0 l/m 0 min 0 min 0 W/m 4,2 km/h (1 Bft)
01.10.2014 06:00 14,2 C 12,2 C 98 % 1025,1 hPa 0,0 l/m 0 min 0 min 0 W/m 6,3 km/h (2 Bft)
01.10.2014 06:02 14,1 C 12,2 C 98 % 1025,1 hPa 0,0 l/m 0 min 0 min 0 W/m 4,2 km/h (1 Bft)
01.10.2014 06:05 14,1 C 12,2 C 98 % 1025,1 hPa 0,0 l/m 0 min 0 min 0 W/m 6,3 km/h (2 Bft)
01.10.2014 06:06 14,1 C 12,2 C 98 % 1025,1 hPa 0,0 l/m 0 min 0 min 0 W/m 6,3 km/h (2 Bft)
01.10.2014 06:08 14,0 C 12,2 C 98 % 1025,1 hPa 0,0 l/m 0 min 0 min 0 W/m 6,3 km/h (2 Bft)
01.10.2014 06:10 14,0 C 12,2 C 98 % 1025,2 hPa 0,0 l/m 0 min 0 min 0 W/m 4,2 km/h (1 Bft)
01.10.2014 06:12 13,9 C 12,2 C 98 % 1025,2 hPa 0,0 l/m 0 min 0 min 0 W/m 6,3 km/h (2 Bft)
01.10.2014 06:14 13,9 C 12,2 C 98 % 1025,2 hPa 0,0 l/m 0 min 0 min 0 W/m 4,2 km/h (1 Bft)
01.10.2014 06:16 13,9 C 12,2 C 98 % 1025,2 hPa 0,0 l/m 0 min 0 min 0 W/m 6,3 km/h (2 Bft)
01.10.2014 06:18 13,9 C 12,2 C 98 % 1025,2 hPa 0,0 l/m 0 min 0 min 0 W/m 6,3 km/h (2 Bft)
01.10.2014 06:20 13,9 C 12,2 C 98 % 1025,2 hPa 0,0 l/m 0 min 0 min 0 W/m 6,3 km/h (2 Bft)
01.10.2014 06:22 13,9 C 12,2 C 98 % 1025,1 hPa 0,0 l/m 0 min 0 min 0 W/m 6,3 km/h (2 Bft)
01.10.2014 06:24 13,8 C 12,2 C 98 % 1025,1 hPa 0,0 l/m 0 min 0 min 0 W/m 4,2 km/h (1 Bft)
01.10.2014 06:26 13,8 C 12,2 C 98 % 1025,2 hPa 0,0 l/m 0 min 0 min 0 W/m 4,2 km/h (1 Bft)
01.10.2014 06:28 13,8 C 12,2 C 98 % 1025,2 hPa 0,0 l/m 0 min 0 min 0 W/m 6,3 km/h (2 Bft)
01.10.2014 06:30 13,8 C 12,2 C 98 % 1025,2 hPa 0,0 l/m 0 min 0 min 0 W/m 6,3 km/h (2 Bft)
01.10.2014 06:32 13,8 C 12,2 C 98 % 1025,2 hPa 0,0 l/m 0 min 0 min 0 W/m 4,2 km/h (1 Bft)
01.10.2014 06:34 13,7 C 12,2 C 98 % 1025,2 hPa 0,0 l/m 0 min 0 min 0 W/m 4,2 km/h (1 Bft)
01.10.2014 06:36 13,7 C 12,2 C 98 % 1025,2 hPa 0,0 l/m 0 min 0 min 0 W/m 6,3 km/h (2 Bft)
01.10.2014 06:38 13,7 C 12,2 C 98 % 1025,2 hPa 0,0 l/m 0 min 0 min 0 W/m 4,2 km/h (1 Bft)
01.10.2014 06:40 13,7 C 12,2 C 98 % 1025,2 hPa 0,0 l/m 0 min 0 min 0 W/m 6,3 km/h (2 Bft)
01.10.2014 06:42 13,7 C 12,2 C 98 % 1025,2 hPa 0,0 l/m 0 min 0 min 0 W/m 6,3 km/h (2 Bft)
01.10.2014 06:44 13,7 C 12,2 C 98 % 1025,2 hPa 0,0 l/m 0 min 0 min 0 W/m 6,3 km/h (2 Bft)
01.10.2014 06:46 13,7 C 12,2 C 98 % 1025,2 hPa 0,0 l/m 0 min 0 min 0 W/m 6,3 km/h (2 Bft)
01.10.2014 06:48 13,7 C 12,2 C 98 % 1025,2 hPa 0,0 l/m 0 min 0 min 0 W/m 6,3 km/h (2 Bft)
01.10.2014 06:50 13,7 C 12,2 C 98 % 1025,2 hPa 0,0 l/m 0 min 0 min 0 W/m 6,3 km/h (2 Bft)
01.10.2014 06:52 13,6 C 12,2 C 98 % 1025,3 hPa 0,0 l/m 0 min 0 min 0 W/m 6,3 km/h (2 Bft)
01.10.2014 06:54 13,6 C 12,2 C 98 % 1025,3 hPa 0,0 l/m 0 min 0 min 0 W/m 6,3 km/h (2 Bft)
01.10.2014 06:56 13,6 C 12,2 C 98 % 1025,2 hPa 0,0 l/m 0 min 0 min 0 W/m 6,3 km/h (2 Bft)
01.10.2014 06:58 13,6 C 12,2 C 98 % 1025,2 hPa 0,0 l/m 0 min 0 min 0 W/m 6,3 km/h (2 Bft)
01.10.2014 07:00 13,6 C 12,2 C 98 % 1025,2 hPa 0,0 l/m 0 min 0 min 0 W/m 8,4 km/h (2 Bft)
01.10.2014 07:02 13,6 C 12,2 C 98 % 1025,2 hPa 0,0 l/m 0 min 0 min 0 W/m 4,2 km/h (1 Bft)
01.10.2014 07:04 13,5 C 12,2 C 98 % 1025,2 hPa 0,0 l/m 0 min 0 min 0 W/m 4,2 km/h (1 Bft)
01.10.2014 07:06 13,5 C 11,7 C 98 % 1025,2 hPa 0,0 l/m 0 min 0 min 0 W/m 4,2 km/h (1 Bft)
01.10.2014 07:08 13,5 C 11,7 C 98 % 1025,2 hPa 0,0 l/m 0 min 0 min 0 W/m 6,3 km/h (2 Bft)
01.10.2014 07:10 13,5 C 11,7 C 98 % 1025,2 hPa 0,0 l/m 0 min 0 min 0 W/m 4,2 km/h (1 Bft)
01.10.2014 07:12 13,5 C 11,7 C 98 % 1025,2 hPa 0,0 l/m 0 min 0 min 0 W/m 4,2 km/h (1 Bft)
01.10.2014 07:14 13,4 C 11,7 C 98 % 1025,2 hPa 0,0 l/m 0 min 0 min 0 W/m 4,2 km/h (1 Bft)
01.10.2014 07:16 13,4 C 11,7 C 98 % 1025,3 hPa 0,0 l/m 0 min 0 min 0 W/m 4,2 km/h (1 Bft)
01.10.2014 07:18 13,4 C 11,7 C 98 % 1025,2 hPa 0,0 l/m 0 min 0 min 0 W/m 4,2 km/h (1 Bft)
01.10.2014 07:20 13,4 C 11,7 C 98 % 1025,1 hPa 0,0 l/m 0 min 0 min 0 W/m 4,2 km/h (1 Bft)
01.10.2014 07:22 13,4 C 11,7 C 98 % 1025,2 hPa 0,0 l/m 0 min 0 min 0 W/m 4,2 km/h (1 Bft)
01.10.2014 07:24 13,4 C 11,7 C 98 % 1025,2 hPa 0,0 l/m 0 min 0 min 0 W/m 4,2 km/h (1 Bft)
01.10.2014 07:26 13,3 C 11,7 C 98 % 1025,2 hPa 0,0 l/m 0 min 0 min 0 W/m 6,3 km/h (2 Bft)
01.10.2014 07:28 13,3 C 11,7 C 98 % 1025,2 hPa 0,0 l/m 0 min 0 min 0 W/m 6,3 km/h (2 Bft)
01.10.2014 07:30 13,3 C 11,7 C 98 % 1025,2 hPa 0,0 l/m 0 min 0 min 0 W/m 4,2 km/h (1 Bft)
01.10.2014 07:32 13,3 C 11,7 C 98 % 1025,2 hPa 0,0 l/m 0 min 0 min 1 W/m 4,2 km/h (1 Bft)
01.10.2014 07:34 13,3 C 11,7 C 98 % 1025,2 hPa 0,0 l/m 0 min 0 min 5 W/m 4,2 km/h (1 Bft)
01.10.2014 07:36 13,2 C 11,7 C 98 % 1025,2 hPa 0,0 l/m 0 min 0 min 5 W/m 4,2 km/h (1 Bft)
01.10.2014 07:38 13,2 C 11,7 C 98 % 1025,3 hPa 0,0 l/m 0 min 0 min 5 W/m 4,2 km/h (1 Bft)
01.10.2014 07:40 13,2 C 11,7 C 98 % 1025,3 hPa 0,0 l/m 0 min 0 min 7 W/m 6,3 km/h (2 Bft)
01.10.2014 07:42 13,2 C 11,7 C 98 % 1025,3 hPa 0,0 l/m 0 min 0 min 7 W/m 6,3 km/h (2 Bft)
01.10.2014 07:44 13,2 C 11,7 C 98 % 1025,3 hPa 0,0 l/m 0 min 0 min 7 W/m 4,2 km/h (1 Bft)
01.10.2014 07:46 13,2 C 11,7 C 98 % 1025,3 hPa 0,0 l/m 0 min 0 min 9 W/m 4,2 km/h (1 Bft)
01.10.2014 07:48 13,1 C 11,7 C 98 % 1025,4 hPa 0,0 l/m 0 min 0 min 9 W/m 4,2 km/h (1 Bft)
01.10.2014 07:50 13,1 C 11,7 C 98 % 1025,4 hPa 0,0 l/m 0 min 0 min 11 W/m 4,2 km/h (1 Bft)
01.10.2014 07:52 13,1 C 11,7 C 98 % 1025,3 hPa 0,0 l/m 0 min 0 min 12 W/m 4,2 km/h (1 Bft)
01.10.2014 07:54 13,1 C 11,1 C 98 % 1025,3 hPa 0,0 l/m 0 min 0 min 14 W/m 4,2 km/h (1 Bft)
01.10.2014 07:56 13,0 C 11,1 C 98 % 1025,4 hPa 0,0 l/m 0 min 0 min 17 W/m 6,3 km/h (2 Bft)
01.10.2014 07:58 13,0 C 11,7 C 98 % 1025,3 hPa 0,0 l/m 0 min 0 min 19 W/m 4,2 km/h (1 Bft)
01.10.2014 08:00 13,0 C 11,7 C 98 % 1025,3 hPa 0,0 l/m 0 min 0 min 21 W/m 4,2 km/h (1 Bft)
01.10.2014 08:02 12,9 C 11,7 C 98 % 1025,4 hPa 0,0 l/m 0 min 0 min 22 W/m 4,2 km/h (1 Bft)
01.10.2014 08:04 12,9 C 11,1 C 98 % 1025,4 hPa 0,0 l/m 0 min 0 min 23 W/m 4,2 km/h (1 Bft)
01.10.2014 08:06 12,9 C 11,1 C 98 % 1025,4 hPa 0,0 l/m 0 min 0 min 26 W/m 6,3 km/h (2 Bft)
01.10.2014 08:08 12,9 C 11,1 C 98 % 1025,5 hPa 0,0 l/m 0 min 0 min 31 W/m 4,2 km/h (1 Bft)
01.10.2014 08:10 12,9 C 11,1 C 98 % 1025,5 hPa 0,0 l/m 0 min 0 min 35 W/m 4,2 km/h (1 Bft)
01.10.2014 08:12 12,9 C 11,7 C 98 % 1025,5 hPa 0,0 l/m 0 min 0 min 40 W/m 4,2 km/h (1 Bft)
01.10.2014 08:14 12,9 C 11,7 C 98 % 1025,6 hPa 0,0 l/m 2 min 0 min 50 W/m 4,2 km/h (1 Bft)
01.10.2014 08:16 12,8 C 11,7 C 98 % 1025,7 hPa 0,0 l/m 2 min 0 min 57 W/m 4,2 km/h (1 Bft)
01.10.2014 08:18 12,8 C 11,7 C 98 % 1025,7 hPa 0,0 l/m 2 min 0 min 60 W/m 4,2 km/h (1 Bft)
01.10.2014 08:20 12,8 C 11,7 C 98 % 1025,7 hPa 0,0 l/m 2 min 0 min 66 W/m 4,2 km/h (1 Bft)
01.10.2014 08:22 12,8 C 11,7 C 98 % 1025,7 hPa 0,0 l/m 2 min 0 min 74 W/m 4,2 km/h (1 Bft)
01.10.2014 08:24 12,8 C 11,7 C 98 % 1025,7 hPa 0,0 l/m 2 min 0 min 76 W/m 4,2 km/h (1 Bft)
01.10.2014 08:26 12,8 C 11,7 C 98 % 1025,6 hPa 0,0 l/m 2 min 0 min 79 W/m 4,2 km/h (1 Bft)
01.10.2014 08:28 12,8 C 11,7 C 98 % 1025,8 hPa 0,0 l/m 2 min 0 min 86 W/m 4,2 km/h (1 Bft)
01.10.2014 08:30 12,8 C 11,7 C 98 % 1025,8 hPa 0,0 l/m 2 min 0 min 92 W/m 4,2 km/h (1 Bft)
01.10.2014 08:32 12,8 C 11,7 C 98 % 1025,7 hPa 0,0 l/m 2 min 0 min 91 W/m 2,1 km/h (1 Bft)
01.10.2014 08:34 12,8 C 11,7 C 98 % 1025,8 hPa 0,0 l/m 2 min 0 min 92 W/m 4,2 km/h (1 Bft)
01.10.2014 08:36 12,8 C 11,7 C 98 % 1025,8 hPa 0,0 l/m 2 min 0 min 101 W/m 6,3 km/h (2 Bft)
01.10.2014 08:38 12,8 C 12,2 C 98 % 1025,8 hPa 0,0 l/m 2 min 0 min 113 W/m 6,3 km/h (2 Bft)
01.10.2014 08:40 12,8 C 12,2 C 98 % 1025,8 hPa 0,0 l/m 2 min 0 min 123 W/m 6,3 km/h (2 Bft)
01.10.2014 08:42 12,9 C 12,2 C 98 % 1025,8 hPa 0,0 l/m 2 min 0 min 131 W/m 10,5 km/h (2 Bft)
01.10.2014 08:44 12,9 C 12,2 C 98 % 1025,8 hPa 0,0 l/m 2 min 0 min 138 W/m 6,3 km/h (2 Bft)
01.10.2014 08:46 13,0 C 12,2 C 98 % 1025,8 hPa 0,0 l/m 2 min 0 min 141 W/m 8,4 km/h (2 Bft)
01.10.2014 08:48 13,1 C 12,8 C 98 % 1025,9 hPa 0,0 l/m 2 min 0 min 143 W/m 6,3 km/h (2 Bft)
01.10.2014 08:50 13,1 C 12,8 C 98 % 1025,9 hPa 0,0 l/m 2 min 0 min 148 W/m 6,3 km/h (2 Bft)
01.10.2014 08:52 13,1 C 12,8 C 98 % 1025,9 hPa 0,0 l/m 2 min 0 min 150 W/m 4,2 km/h (1 Bft)
01.10.2014 08:54 13,2 C 12,8 C 98 % 1025,9 hPa 0,0 l/m 2 min 0 min 156 W/m 4,2 km/h (1 Bft)
01.10.2014 08:56 13,2 C 12,8 C 98 % 1025,9 hPa 0,0 l/m 2 min 0 min 162 W/m 6,3 km/h (2 Bft)
01.10.2014 08:58 13,3 C 12,8 C 98 % 1025,9 hPa 0,0 l/m 2 min 0 min 173 W/m 6,3 km/h (2 Bft)
01.10.2014 09:00 13,4 C 12,8 C 98 % 1025,9 hPa 0,0 l/m 2 min 0 min 176 W/m 6,3 km/h (2 Bft)
01.10.2014 09:02 13,4 C 12,8 C 98 % 1025,9 hPa 0,0 l/m 2 min 0 min 176 W/m 6,3 km/h (2 Bft)
01.10.2014 09:04 13,6 C 12,8 C 98 % 1025,9 hPa 0,0 l/m 2 min 0 min 157 W/m 6,3 km/h (2 Bft)
01.10.2014 09:06 13,6 C 12,8 C 98 % 1025,9 hPa 0,0 l/m 2 min 0 min 166 W/m 8,4 km/h (2 Bft)
01.10.2014 09:08 13,7 C 12,8 C 98 % 1026,0 hPa 0,0 l/m 2 min 0 min 131 W/m 6,3 km/h (2 Bft)
01.10.2014 09:10 13,7 C 12,8 C 98 % 1026,0 hPa 0,0 l/m 0 min 0 min 102 W/m 10,5 km/h (2 Bft)
01.10.2014 09:12 13,8 C 12,8 C 98 % 1026,0 hPa 0,0 l/m 0 min 0 min 105 W/m 6,3 km/h (2 Bft)
01.10.2014 09:14 13,9 C 13,3 C 99 % 1026,0 hPa 0,0 l/m 0 min 0 min 108 W/m 6,3 km/h (2 Bft)
01.10.2014 09:16 13,9 C 13,3 C 99 % 1026,0 hPa 0,0 l/m 0 min 0 min 106 W/m 6,3 km/h (2 Bft)
01.10.2014 09:18 14,0 C 13,3 C 99 % 1026,0 hPa 0,0 l/m 2 min 0 min 128 W/m 8,4 km/h (2 Bft)
01.10.2014 09:20 14,1 C 13,3 C 99 % 1026,0 hPa 0,0 l/m 2 min 0 min 138 W/m 8,4 km/h (2 Bft)
01.10.2014 09:22 14,1 C 13,3 C 99 % 1026,1 hPa 0,0 l/m 2 min 0 min 156 W/m 6,3 km/h (2 Bft)
01.10.2014 09:24 14,2 C 13,3 C 99 % 1026,0 hPa 0,0 l/m 0 min 0 min 123 W/m 8,4 km/h (2 Bft)
01.10.2014 09:26 14,2 C 13,3 C 99 % 1026,0 hPa 0,0 l/m 0 min 0 min 107 W/m 6,3 km/h (2 Bft)
01.10.2014 09:28 14,2 C 13,3 C 99 % 1026,0 hPa 0,0 l/m 0 min 0 min 127 W/m 8,4 km/h (2 Bft)
01.10.2014 09:30 14,2 C 13,3 C 99 % 1026,1 hPa 0,0 l/m 0 min 0 min 132 W/m 8,4 km/h (2 Bft)
01.10.2014 09:32 14,2 C 13,3 C 99 % 1026,1 hPa 0,0 l/m 2 min 0 min 143 W/m 6,3 km/h (2 Bft)
01.10.2014 09:34 14,2 C 13,3 C 99 % 1026,1 hPa 0,0 l/m 0 min 0 min 116 W/m 6,3 km/h (2 Bft)
01.10.2014 09:36 14,3 C 13,3 C 99 % 1026,2 hPa 0,0 l/m 0 min 2 min 106 W/m 6,3 km/h (2 Bft)
01.10.2014 09:38 14,3 C 13,3 C 99 % 1026,2 hPa 0,0 l/m 2 min 0 min 179 W/m 6,3 km/h (2 Bft)
01.10.2014 09:40 14,4 C 13,3 C 99 % 1026,1 hPa 0,0 l/m 0 min 0 min 130 W/m 8,4 km/h (2 Bft)
01.10.2014 09:42 14,4 C 13,3 C 99 % 1026,2 hPa 0,0 l/m 0 min 0 min 144 W/m 8,4 km/h (2 Bft)
01.10.2014 09:44 14,5 C 13,3 C 99 % 1026,2 hPa 0,0 l/m 2 min 0 min 238 W/m 4,2 km/h (1 Bft)
01.10.2014 09:46 14,5 C 13,9 C 99 % 1026,2 hPa 0,0 l/m 2 min 0 min 273 W/m 4,2 km/h (1 Bft)
01.10.2014 09:48 14,6 C 13,9 C 99 % 1026,2 hPa 0,0 l/m 2 min 0 min 261 W/m 4,2 km/h (1 Bft)
01.10.2014 09:50 14,6 C 13,9 C 99 % 1026,2 hPa 0,0 l/m 2 min 0 min 243 W/m 6,3 km/h (2 Bft)
01.10.2014 09:52 14,7 C 13,9 C 99 % 1026,2 hPa 0,0 l/m 2 min 0 min 233 W/m 4,2 km/h (1 Bft)
01.10.2014 09:54 14,7 C 13,9 C 99 % 1026,2 hPa 0,0 l/m 2 min 0 min 244 W/m 6,3 km/h (2 Bft)
01.10.2014 09:56 14,8 C 13,9 C 99 % 1026,2 hPa 0,0 l/m 2 min 0 min 278 W/m 8,4 km/h (2 Bft)
01.10.2014 09:58 14,9 C 13,9 C 99 % 1026,2 hPa 0,0 l/m 2 min 0 min 277 W/m 8,4 km/h (2 Bft)
01.10.2014 10:00 14,9 C 13,9 C 99 % 1026,2 hPa 0,0 l/m 2 min 0 min 304 W/m 8,4 km/h (2 Bft)
01.10.2014 10:02 15,1 C 13,9 C 99 % 1026,2 hPa 0,0 l/m 2 min 0 min 317 W/m 8,4 km/h (2 Bft)
01.10.2014 10:04 15,1 C 13,9 C 99 % 1026,3 hPa 0,0 l/m 2 min 0 min 304 W/m 10,5 km/h (2 Bft)
01.10.2014 10:06 15,2 C 14,4 C 99 % 1026,3 hPa 0,0 l/m 2 min 0 min 316 W/m 8,4 km/h (2 Bft)
01.10.2014 10:08 15,3 C 14,4 C 99 % 1026,3 hPa 0,0 l/m 2 min 0 min 246 W/m 10,5 km/h (2 Bft)
01.10.2014 10:10 15,3 C 14,4 C 99 % 1026,3 hPa 0,0 l/m 2 min 0 min 288 W/m 6,3 km/h (2 Bft)
01.10.2014 10:12 15,4 C 14,4 C 99 % 1026,3 hPa 0,0 l/m 2 min 0 min 338 W/m 4,2 km/h (1 Bft)
01.10.2014 10:14 15,4 C 14,4 C 99 % 1026,3 hPa 0,0 l/m 2 min 0 min 361 W/m 8,4 km/h (2 Bft)
01.10.2014 10:16 15,6 C 14,4 C 99 % 1026,4 hPa 0,0 l/m 2 min 0 min 281 W/m 6,3 km/h (2 Bft)
01.10.2014 10:18 15,6 C 14,4 C 99 % 1026,4 hPa 0,0 l/m 2 min 0 min 288 W/m 6,3 km/h (2 Bft)
01.10.2014 10:20 15,7 C 14,4 C 99 % 1026,4 hPa 0,0 l/m 2 min 0 min 262 W/m 6,3 km/h (2 Bft)
01.10.2014 10:22 15,7 C 14,4 C 99 % 1026,4 hPa 0,0 l/m 2 min 0 min 353 W/m 10,5 km/h (2 Bft)
01.10.2014 10:24 15,7 C 14,4 C 99 % 1026,4 hPa 0,0 l/m 2 min 0 min 207 W/m 12,6 km/h (3 Bft)
01.10.2014 10:26 15,8 C 14,4 C 99 % 1026,4 hPa 0,0 l/m 0 min 0 min 185 W/m 8,4 km/h (2 Bft)
01.10.2014 10:28 15,8 C 14,4 C 99 % 1026,4 hPa 0,0 l/m 0 min 0 min 185 W/m 6,3 km/h (2 Bft)
01.10.2014 10:30 15,9 C 14,4 C 99 % 1026,4 hPa 0,0 l/m 2 min 0 min 389 W/m 10,5 km/h (2 Bft)
01.10.2014 10:32 15,9 C 14,4 C 99 % 1026,4 hPa 0,0 l/m 0 min 0 min 180 W/m 12,6 km/h (3 Bft)
01.10.2014 10:34 15,9 C 14,4 C 99 % 1026,4 hPa 0,0 l/m 2 min 0 min 379 W/m 8,4 km/h (2 Bft)
01.10.2014 10:36 15,9 C 14,4 C 99 % 1026,4 hPa 0,0 l/m 2 min 0 min 351 W/m 8,4 km/h (2 Bft)
01.10.2014 10:38 16,0 C 15,0 C 99 % 1026,4 hPa 0,0 l/m 2 min 0 min 304 W/m 6,3 km/h (2 Bft)
01.10.2014 10:40 16,1 C 15,0 C 99 % 1026,4 hPa 0,0 l/m 2 min 0 min 394 W/m 8,4 km/h (2 Bft)
01.10.2014 10:42 16,1 C 15,0 C 99 % 1026,5 hPa 0,0 l/m 2 min 0 min 257 W/m 6,3 km/h (2 Bft)
01.10.2014 10:44 16,2 C 15,0 C 99 % 1026,5 hPa 0,0 l/m 2 min 0 min 257 W/m 8,4 km/h (2 Bft)
01.10.2014 10:46 16,3 C 15,0 C 99 % 1026,5 hPa 0,0 l/m 2 min 0 min 476 W/m 10,5 km/h (2 Bft)
01.10.2014 10:48 16,4 C 15,0 C 99 % 1026,5 hPa 0,0 l/m 2 min 0 min 472 W/m 8,4 km/h (2 Bft)
01.10.2014 10:50 16,4 C 15,0 C 99 % 1026,6 hPa 0,0 l/m 2 min 0 min 460 W/m 10,5 km/h (2 Bft)
01.10.2014 10:52 16,5 C 15,0 C 99 % 1026,7 hPa 0,0 l/m 2 min 0 min 389 W/m 12,6 km/h (3 Bft)
01.10.2014 10:54 16,5 C 15,0 C 99 % 1026,7 hPa 0,0 l/m 2 min 0 min 233 W/m 10,5 km/h (2 Bft)
01.10.2014 10:56 16,6 C 15,0 C 99 % 1026,6 hPa 0,0 l/m 2 min 0 min 438 W/m 8,4 km/h (2 Bft)
01.10.2014 10:58 16,6 C 15,0 C 99 % 1026,7 hPa 0,0 l/m 2 min 0 min 475 W/m 12,6 km/h (3 Bft)
01.10.2014 11:00 16,6 C 15,0 C 99 % 1026,6 hPa 0,0 l/m 2 min 0 min 445 W/m 10,5 km/h (2 Bft)
01.10.2014 11:02 16,7 C 15,0 C 99 % 1026,6 hPa 0,0 l/m 2 min 0 min 470 W/m 12,6 km/h (3 Bft)
01.10.2014 11:04 16,8 C 15,0 C 99 % 1026,7 hPa 0,0 l/m 2 min 0 min 453 W/m 10,5 km/h (2 Bft)
01.10.2014 11:06 16,8 C 15,0 C 99 % 1026,7 hPa 0,0 l/m 2 min 0 min 458 W/m 12,6 km/h (3 Bft)
01.10.2014 11:08 16,8 C 15,0 C 99 % 1026,7 hPa 0,0 l/m 2 min 0 min 281 W/m 10,5 km/h (2 Bft)
01.10.2014 11:10 16,9 C 15,0 C 99 % 1026,7 hPa 0,0 l/m 2 min 0 min 421 W/m 8,4 km/h (2 Bft)
01.10.2014 11:12 16,9 C 15,0 C 99 % 1026,7 hPa 0,0 l/m 2 min 0 min 494 W/m 10,5 km/h (2 Bft)
01.10.2014 11:14 17,0 C 15,6 C 99 % 1026,6 hPa 0,0 l/m 2 min 0 min 484 W/m 8,4 km/h (2 Bft)
01.10.2014 11:16 17,1 C 15,0 C 99 % 1026,7 hPa 0,0 l/m 2 min 0 min 481 W/m 8,4 km/h (2 Bft)
01.10.2014 11:18 17,1 C 15,0 C 99 % 1026,5 hPa 0,0 l/m 2 min 0 min 478 W/m 8,4 km/h (2 Bft)
01.10.2014 11:20 17,2 C 15,6 C 99 % 1026,5 hPa 0,0 l/m 2 min 0 min 492 W/m 8,4 km/h (2 Bft)
01.10.2014 11:22 17,2 C 15,6 C 99 % 1026,5 hPa 0,0 l/m 2 min 0 min 487 W/m 4,2 km/h (1 Bft)
01.10.2014 11:24 17,3 C 15,6 C 98 % 1026,5 hPa 0,0 l/m 2 min 0 min 493 W/m 10,5 km/h (2 Bft)
01.10.2014 11:26 17,4 C 15,6 C 98 % 1026,5 hPa 0,0 l/m 2 min 0 min 498 W/m 12,6 km/h (3 Bft)
01.10.2014 11:28 17,5 C 15,6 C 98 % 1026,5 hPa 0,0 l/m 2 min 0 min 515 W/m 10,5 km/h (2 Bft)
01.10.2014 11:30 17,6 C 15,6 C 98 % 1026,5 hPa 0,0 l/m 2 min 0 min 521 W/m 8,4 km/h (2 Bft)
01.10.2014 11:32 17,7 C 15,6 C 98 % 1026,5 hPa 0,0 l/m 2 min 0 min 502 W/m 12,6 km/h (3 Bft)
01.10.2014 11:34 17,8 C 15,6 C 97 % 1026,5 hPa 0,0 l/m 2 min 0 min 511 W/m 14,6 km/h (3 Bft)
01.10.2014 11:36 17,9 C 15,6 C 97 % 1026,6 hPa 0,0 l/m 2 min 0 min 518 W/m 14,6 km/h (3 Bft)
01.10.2014 11:38 18,1 C 15,6 C 96 % 1026,6 hPa 0,0 l/m 2 min 0 min 522 W/m 14,6 km/h (3 Bft)
01.10.2014 11:40 18,2 C 15,6 C 96 % 1026,6 hPa 0,0 l/m 2 min 0 min 533 W/m 10,5 km/h (2 Bft)
01.10.2014 11:42 18,3 C 15,6 C 95 % 1026,6 hPa 0,0 l/m 2 min 0 min 532 W/m 10,5 km/h (2 Bft)
01.10.2014 11:44 18,4 C 15,6 C 94 % 1026,6 hPa 0,0 l/m 2 min 0 min 530 W/m 12,6 km/h (3 Bft)
01.10.2014 11:46 18,6 C 15,6 C 93 % 1026,6 hPa 0,0 l/m 2 min 0 min 529 W/m 10,5 km/h (2 Bft)
01.10.2014 11:48 18,7 C 15,6 C 92 % 1026,7 hPa 0,0 l/m 2 min 0 min 540 W/m 10,5 km/h (2 Bft)
01.10.2014 11:50 18,8 C 15,6 C 91 % 1026,7 hPa 0,0 l/m 2 min 0 min 531 W/m 10,5 km/h (2 Bft)
01.10.2014 11:52 18,9 C 15,6 C 91 % 1026,7 hPa 0,0 l/m 2 min 0 min 536 W/m 8,4 km/h (2 Bft)
01.10.2014 11:54 19,1 C 15,6 C 90 % 1026,7 hPa 0,0 l/m 2 min 0 min 542 W/m 8,4 km/h (2 Bft)
01.10.2014 11:56 19,2 C 15,6 C 89 % 1026,6 hPa 0,0 l/m 2 min 0 min 555 W/m 10,5 km/h (2 Bft)
01.10.2014 11:58 19,3 C 16,1 C 88 % 1026,8 hPa 0,0 l/m 2 min 0 min 566 W/m 12,6 km/h (3 Bft)
01.10.2014 12:00 19,4 C 16,1 C 88 % 1026,7 hPa 0,0 l/m 2 min 0 min 564 W/m 10,5 km/h (2 Bft)
01.10.2014 12:02 19,5 C 16,1 C 86 % 1026,7 hPa 0,0 l/m 2 min 0 min 579 W/m 10,5 km/h (2 Bft)
01.10.2014 12:05 19,7 C 16,1 C 85 % 1026,7 hPa 0,0 l/m 2 min 0 min 619 W/m 8,4 km/h (2 Bft)
01.10.2014 12:06 19,7 C 16,1 C 85 % 1026,7 hPa 0,0 l/m 1 min 0 min 603 W/m 8,4 km/h (2 Bft)
01.10.2014 12:08 19,8 C 16,1 C 84 % 1026,7 hPa 0,0 l/m 2 min 0 min 597 W/m 8,4 km/h (2 Bft)
01.10.2014 12:10 19,9 C 16,1 C 84 % 1026,7 hPa 0,0 l/m 2 min 0 min 589 W/m 12,6 km/h (3 Bft)
01.10.2014 12:12 19,9 C 16,1 C 82 % 1026,7 hPa 0,0 l/m 2 min 0 min 588 W/m 12,6 km/h (3 Bft)
01.10.2014 12:14 20,1 C 16,1 C 82 % 1026,7 hPa 0,0 l/m 2 min 0 min 588 W/m 10,5 km/h (2 Bft)
01.10.2014 12:16 20,2 C 16,1 C 82 % 1026,7 hPa 0,0 l/m 2 min 0 min 591 W/m 10,5 km/h (2 Bft)
01.10.2014 12:18 20,2 C 16,7 C 82 % 1026,7 hPa 0,0 l/m 2 min 0 min 587 W/m 8,4 km/h (2 Bft)
01.10.2014 12:20 20,3 C 16,7 C 82 % 1026,7 hPa 0,0 l/m 2 min 0 min 621 W/m 6,3 km/h (2 Bft)
01.10.2014 12:22 20,4 C 16,7 C 81 % 1026,7 hPa 0,0 l/m 2 min 0 min 606 W/m 14,6 km/h (3 Bft)
01.10.2014 12:24 20,4 C 16,7 C 81 % 1026,7 hPa 0,0 l/m 2 min 0 min 606 W/m 14,6 km/h (3 Bft)
01.10.2014 12:26 20,5 C 16,1 C 79 % 1026,8 hPa 0,0 l/m 2 min 0 min 606 W/m 16,7 km/h (3 Bft)
01.10.2014 12:28 20,5 C 16,7 C 79 % 1026,8 hPa 0,0 l/m 2 min 0 min 660 W/m 12,6 km/h (3 Bft)
01.10.2014 12:30 20,6 C 16,7 C 79 % 1026,8 hPa 0,0 l/m 2 min 0 min 401 W/m 10,5 km/h (2 Bft)
01.10.2014 12:32 20,6 C 16,1 C 79 % 1026,8 hPa 0,0 l/m 0 min 0 min 258 W/m 8,4 km/h (2 Bft)
01.10.2014 12:34 20,6 C 16,7 C 79 % 1026,8 hPa 0,0 l/m 0 min 0 min 258 W/m 12,6 km/h (3 Bft)
01.10.2014 12:36 20,6 C 16,7 C 79 % 1026,8 hPa 0,0 l/m 0 min 0 min 266 W/m 10,5 km/h (2 Bft)
01.10.2014 12:38 20,6 C 16,1 C 79 % 1026,7 hPa 0,0 l/m 0 min 0 min 241 W/m 12,6 km/h (3 Bft)
01.10.2014 12:40 20,5 C 16,1 C 78 % 1026,7 hPa 0,0 l/m 0 min 0 min 200 W/m 14,6 km/h (3 Bft)
01.10.2014 12:42 20,4 C 16,1 C 78 % 1026,6 hPa 0,0 l/m 0 min 0 min 207 W/m 14,6 km/h (3 Bft)
01.10.2014 12:44 20,4 C 16,1 C 79 % 1026,7 hPa 0,0 l/m 0 min 0 min 207 W/m 10,5 km/h (2 Bft)
01.10.2014 12:46 20,3 C 16,1 C 79 % 1026,8 hPa 0,0 l/m 0 min 0 min 245 W/m 18,8 km/h (3 Bft)
01.10.2014 12:48 20,3 C 16,1 C 79 % 1026,7 hPa 0,0 l/m 0 min 0 min 236 W/m 14,6 km/h (3 Bft)
01.10.2014 12:50 20,2 C 16,1 C 78 % 1026,7 hPa 0,0 l/m 0 min 0 min 236 W/m 18,8 km/h (3 Bft)
01.10.2014 12:52 20,2 C 15,6 C 77 % 1026,8 hPa 0,0 l/m 0 min 0 min 158 W/m 18,8 km/h (3 Bft)
01.10.2014 12:54 20,1 C 15,6 C 77 % 1026,7 hPa 0,0 l/m 0 min 0 min 173 W/m 10,5 km/h (2 Bft)
01.10.2014 12:56 19,9 C 15,6 C 77 % 1026,7 hPa 0,0 l/m 0 min 0 min 180 W/m 12,6 km/h (3 Bft)
01.10.2014 12:58 19,9 C 16,1 C 78 % 1026,7 hPa 0,0 l/m 0 min 0 min 195 W/m 10,5 km/h (2 Bft)
01.10.2014 13:00 19,9 C 16,1 C 79 % 1026,7 hPa 0,0 l/m 0 min 0 min 198 W/m 18,8 km/h (3 Bft)
01.10.2014 13:02 19,8 C 16,1 C 79 % 1026,6 hPa 0,0 l/m 0 min 0 min 246 W/m 14,6 km/h (3 Bft)
01.10.2014 13:04 19,8 C 16,1 C 79 % 1026,6 hPa 0,0 l/m 2 min 0 min 569 W/m 12,6 km/h (3 Bft)
01.10.2014 13:06 19,9 C 16,1 C 80 % 1026,6 hPa 0,0 l/m 2 min 0 min 587 W/m 12,6 km/h (3 Bft)
01.10.2014 13:08 19,9 C 16,7 C 80 % 1026,5 hPa 0,0 l/m 2 min 0 min 585 W/m 14,6 km/h (3 Bft)
01.10.2014 13:10 20,0 C 16,7 C 79 % 1026,6 hPa 0,0 l/m 2 min 0 min 592 W/m 12,6 km/h (3 Bft)
01.10.2014 13:12 20,1 C 16,7 C 80 % 1026,5 hPa 0,0 l/m 2 min 0 min 581 W/m 10,5 km/h (2 Bft)
01.10.2014 13:14 20,2 C 16,7 C 79 % 1026,6 hPa 0,0 l/m 2 min 0 min 575 W/m 16,7 km/h (3 Bft)
01.10.2014 13:16 20,2 C 16,7 C 79 % 1026,6 hPa 0,0 l/m 2 min 0 min 595 W/m 10,5 km/h (2 Bft)
01.10.2014 13:18 20,3 C 16,7 C 78 % 1026,6 hPa 0,0 l/m 2 min 0 min 569 W/m 10,5 km/h (2 Bft)
01.10.2014 13:20 20,4 C 17,2 C 79 % 1026,6 hPa 0,0 l/m 2 min 0 min 601 W/m 8,4 km/h (2 Bft)
01.10.2014 13:22 20,5 C 16,7 C 78 % 1026,6 hPa 0,0 l/m 2 min 0 min 611 W/m 18,8 km/h (3 Bft)
01.10.2014 13:24 20,6 C 16,7 C 77 % 1026,6 hPa 0,0 l/m 2 min 0 min 618 W/m 18,8 km/h (3 Bft)
01.10.2014 13:26 20,7 C 16,7 C 76 % 1026,6 hPa 0,0 l/m 2 min 0 min 596 W/m 10,5 km/h (2 Bft)
01.10.2014 13:28 20,7 C 16,7 C 76 % 1026,5 hPa 0,0 l/m 2 min 0 min 594 W/m 14,6 km/h (3 Bft)
01.10.2014 13:30 20,8 C 17,2 C 76 % 1026,5 hPa 0,0 l/m 2 min 0 min 616 W/m 14,6 km/h (3 Bft)
01.10.2014 13:32 20,9 C 17,2 C 76 % 1026,6 hPa 0,0 l/m 2 min 0 min 621 W/m 14,6 km/h (3 Bft)
01.10.2014 13:34 21,0 C 17,2 C 76 % 1026,5 hPa 0,0 l/m 2 min 0 min 630 W/m 8,4 km/h (2 Bft)
01.10.2014 13:36 21,1 C 17,8 C 76 % 1026,5 hPa 0,0 l/m 2 min 0 min 642 W/m 14,6 km/h (3 Bft)
01.10.2014 13:38 21,2 C 17,8 C 76 % 1026,6 hPa 0,0 l/m 2 min 0 min 672 W/m 14,6 km/h (3 Bft)
01.10.2014 13:40 21,3 C 17,8 C 75 % 1026,5 hPa 0,0 l/m 2 min 0 min 685 W/m 10,5 km/h (2 Bft)
01.10.2014 13:42 21,4 C 17,8 C 75 % 1026,5 hPa 0,0 l/m 2 min 0 min 638 W/m 10,5 km/h (2 Bft)
01.10.2014 13:44 21,5 C 17,8 C 75 % 1026,5 hPa 0,0 l/m 2 min 0 min 660 W/m 12,6 km/h (3 Bft)
01.10.2014 13:46 21,6 C 17,8 C 75 % 1026,5 hPa 0,0 l/m 2 min 0 min 534 W/m 12,6 km/h (3 Bft)
01.10.2014 13:48 21,6 C 17,8 C 74 % 1026,4 hPa 0,0 l/m 2 min 0 min 404 W/m 10,5 km/h (2 Bft)
01.10.2014 13:50 21,7 C 17,8 C 74 % 1026,5 hPa 0,0 l/m 2 min 0 min 323 W/m 14,6 km/h (3 Bft)
01.10.2014 13:52 21,7 C 17,8 C 74 % 1026,5 hPa 0,0 l/m 2 min 0 min 512 W/m 12,6 km/h (3 Bft)
01.10.2014 13:54 21,8 C 17,8 C 73 % 1026,5 hPa 0,0 l/m 2 min 0 min 640 W/m 8,4 km/h (2 Bft)
01.10.2014 13:56 21,8 C 17,8 C 72 % 1026,4 hPa 0,0 l/m 2 min 0 min 593 W/m 12,6 km/h (3 Bft)
01.10.2014 13:58 21,8 C 17,8 C 72 % 1026,4 hPa 0,0 l/m 0 min 0 min 192 W/m 18,8 km/h (3 Bft)
01.10.2014 14:00 21,8 C 17,8 C 72 % 1026,4 hPa 0,0 l/m 0 min 0 min 212 W/m 8,4 km/h (2 Bft)
01.10.2014 14:02 21,8 C 18,3 C 72 % 1026,4 hPa 0,0 l/m 0 min 0 min 216 W/m 10,5 km/h (2 Bft)
01.10.2014 14:04 21,8 C 18,3 C 72 % 1026,4 hPa 0,0 l/m 0 min 0 min 255 W/m 12,6 km/h (3 Bft)
01.10.2014 14:06 21,7 C 18,3 C 71 % 1026,4 hPa 0,0 l/m 2 min 0 min 414 W/m 14,6 km/h (3 Bft)
01.10.2014 14:08 21,7 C 18,3 C 71 % 1026,4 hPa 0,0 l/m 2 min 0 min 285 W/m 6,3 km/h (2 Bft)
01.10.2014 14:10 21,7 C 18,9 C 72 % 1026,4 hPa 0,0 l/m 2 min 0 min 531 W/m 14,6 km/h (3 Bft)
01.10.2014 14:12 21,7 C 18,9 C 72 % 1026,4 hPa 0,0 l/m 2 min 0 min 632 W/m 14,6 km/h (3 Bft)
01.10.2014 14:14 21,7 C 18,9 C 72 % 1026,4 hPa 0,0 l/m 2 min 0 min 660 W/m 12,6 km/h (3 Bft)
01.10.2014 14:16 21,7 C 18,9 C 72 % 1026,3 hPa 0,0 l/m 2 min 0 min 638 W/m 8,4 km/h (2 Bft)
01.10.2014 14:18 21,8 C 19,4 C 72 % 1026,3 hPa 0,0 l/m 2 min 0 min 635 W/m 12,6 km/h (3 Bft)
01.10.2014 14:20 21,8 C 19,4 C 72 % 1026,2 hPa 0,0 l/m 2 min 0 min 622 W/m 12,6 km/h (3 Bft)
01.10.2014 14:22 21,8 C 19,4 C 72 % 1026,3 hPa 0,0 l/m 2 min 0 min 510 W/m 12,6 km/h (3 Bft)
01.10.2014 14:24 21,9 C 19,4 C 72 % 1026,2 hPa 0,0 l/m 2 min 0 min 285 W/m 10,5 km/h (2 Bft)
01.10.2014 14:26 21,9 C 19,4 C 72 % 1026,2 hPa 0,0 l/m 2 min 0 min 283 W/m 8,4 km/h (2 Bft)
01.10.2014 14:28 21,9 C 18,9 C 71 % 1026,2 hPa 0,0 l/m 0 min 0 min 212 W/m 12,6 km/h (3 Bft)
01.10.2014 14:30 21,9 C 18,9 C 71 % 1026,2 hPa 0,0 l/m 0 min 0 min 182 W/m 14,6 km/h (3 Bft)
01.10.2014 14:32 21,8 C 18,9 C 71 % 1026,2 hPa 0,0 l/m 0 min 0 min 186 W/m 10,5 km/h (2 Bft)
01.10.2014 14:34 21,8 C 18,9 C 72 % 1026,2 hPa 0,0 l/m 2 min 0 min 302 W/m 10,5 km/h (2 Bft)
01.10.2014 14:36 21,8 C 18,9 C 72 % 1026,2 hPa 0,0 l/m 2 min 0 min 536 W/m 8,4 km/h (2 Bft)
01.10.2014 14:38 21,8 C 18,9 C 72 % 1026,1 hPa 0,0 l/m 2 min 0 min 525 W/m 6,3 km/h (2 Bft)
01.10.2014 14:40 21,8 C 18,9 C 72 % 1026,1 hPa 0,0 l/m 2 min 0 min 523 W/m 10,5 km/h (2 Bft)
01.10.2014 14:42 21,8 C 19,4 C 72 % 1026,2 hPa 0,0 l/m 2 min 0 min 546 W/m 14,6 km/h (3 Bft)
01.10.2014 14:44 21,8 C 19,4 C 72 % 1026,2 hPa 0,0 l/m 2 min 0 min 553 W/m 10,5 km/h (2 Bft)
01.10.2014 14:46 21,9 C 19,4 C 73 % 1026,2 hPa 0,0 l/m 2 min 0 min 438 W/m 12,6 km/h (3 Bft)
01.10.2014 14:48 21,9 C 19,4 C 72 % 1026,2 hPa 0,0 l/m 2 min 0 min 453 W/m 8,4 km/h (2 Bft)
01.10.2014 14:50 21,9 C 19,4 C 72 % 1026,2 hPa 0,0 l/m 2 min 0 min 466 W/m 12,6 km/h (3 Bft)
01.10.2014 14:52 21,9 C 18,9 C 71 % 1026,1 hPa 0,0 l/m 2 min 0 min 334 W/m 14,6 km/h (3 Bft)
01.10.2014 14:54 21,9 C 18,9 C 71 % 1026,1 hPa 0,0 l/m 2 min 0 min 302 W/m 10,5 km/h (2 Bft)
01.10.2014 14:56 22,0 C 18,9 C 72 % 1026,0 hPa 0,0 l/m 2 min 0 min 280 W/m 8,4 km/h (2 Bft)
01.10.2014 14:58 22,0 C 18,9 C 72 % 1026,1 hPa 0,0 l/m 2 min 0 min 295 W/m 8,4 km/h (2 Bft)
01.10.2014 15:00 22,0 C 18,9 C 73 % 1026,0 hPa 0,0 l/m 2 min 0 min 297 W/m 6,3 km/h (2 Bft)
01.10.2014 15:02 22,0 C 18,9 C 73 % 1026,0 hPa 0,0 l/m 2 min 0 min 325 W/m 8,4 km/h (2 Bft)
01.10.2014 15:04 22,0 C 18,9 C 72 % 1026,1 hPa 0,0 l/m 2 min 0 min 374 W/m 10,5 km/h (2 Bft)
01.10.2014 15:06 22,1 C 18,9 C 72 % 1026,1 hPa 0,0 l/m 2 min 0 min 394 W/m 8,4 km/h (2 Bft)
01.10.2014 15:08 22,1 C 18,9 C 72 % 1026,1 hPa 0,0 l/m 2 min 0 min 500 W/m 10,5 km/h (2 Bft)
01.10.2014 15:10 22,1 C 19,4 C 70 % 1026,1 hPa 0,0 l/m 2 min 0 min 525 W/m 12,6 km/h (3 Bft)
01.10.2014 15:12 22,1 C 19,4 C 70 % 1026,0 hPa 0,0 l/m 2 min 0 min 527 W/m 6,3 km/h (2 Bft)
01.10.2014 15:14 22,2 C 19,4 C 71 % 1026,0 hPa 0,0 l/m 2 min 0 min 501 W/m 8,4 km/h (2 Bft)
01.10.2014 15:16 22,2 C 19,4 C 71 % 1025,9 hPa 0,0 l/m 2 min 0 min 394 W/m 10,5 km/h (2 Bft)
01.10.2014 15:18 22,2 C 19,4 C 69 % 1025,9 hPa 0,0 l/m 2 min 0 min 387 W/m 10,5 km/h (2 Bft)
01.10.2014 15:20 22,3 C 19,4 C 69 % 1025,9 hPa 0,0 l/m 2 min 0 min 450 W/m 8,4 km/h (2 Bft)
01.10.2014 15:22 22,3 C 19,4 C 70 % 1025,9 hPa 0,0 l/m 2 min 0 min 529 W/m 6,3 km/h (2 Bft)
01.10.2014 15:24 22,4 C 19,4 C 70 % 1025,9 hPa 0,0 l/m 2 min 0 min 525 W/m 8,4 km/h (2 Bft)
01.10.2014 15:26 22,4 C 20,0 C 70 % 1025,9 hPa 0,0 l/m 2 min 0 min 513 W/m 12,6 km/h (3 Bft)
01.10.2014 15:28 22,5 C 20,0 C 70 % 1025,9 hPa 0,0 l/m 2 min 0 min 476 W/m 12,6 km/h (3 Bft)
01.10.2014 15:30 22,6 C 20,0 C 71 % 1025,9 hPa 0,0 l/m 2 min 0 min 424 W/m 14,6 km/h (3 Bft)
01.10.2014 15:32 22,6 C 20,0 C 69 % 1025,9 hPa 0,0 l/m 2 min 0 min 398 W/m 16,7 km/h (3 Bft)
01.10.2014 15:34 22,7 C 20,0 C 68 % 1025,9 hPa 0,0 l/m 2 min 0 min 521 W/m 16,7 km/h (3 Bft)
01.10.2014 15:36 22,7 C 20,0 C 67 % 1025,9 hPa 0,0 l/m 2 min 0 min 540 W/m 12,6 km/h (3 Bft)
01.10.2014 15:38 22,8 C 20,0 C 67 % 1025,8 hPa 0,0 l/m 2 min 0 min 537 W/m 14,6 km/h (3 Bft)
01.10.2014 15:40 22,8 C 20,0 C 67 % 1025,9 hPa 0,0 l/m 2 min 0 min 527 W/m 16,7 km/h (3 Bft)
01.10.2014 15:42 22,8 C 20,0 C 66 % 1025,8 hPa 0,0 l/m 2 min 0 min 519 W/m 14,6 km/h (3 Bft)
01.10.2014 15:44 22,9 C 20,0 C 67 % 1025,8 hPa 0,0 l/m 2 min 0 min 475 W/m 12,6 km/h (3 Bft)
01.10.2014 15:46 22,9 C 20,0 C 66 % 1025,8 hPa 0,0 l/m 2 min 0 min 459 W/m 16,7 km/h (3 Bft)
01.10.2014 15:48 22,9 C 20,0 C 65 % 1025,8 hPa 0,0 l/m 2 min 0 min 471 W/m 14,6 km/h (3 Bft)
01.10.2014 15:50 22,9 C 20,0 C 66 % 1025,7 hPa 0,0 l/m 2 min 0 min 468 W/m 16,7 km/h (3 Bft)
01.10.2014 15:52 22,9 C 20,0 C 65 % 1025,8 hPa 0,0 l/m 2 min 0 min 448 W/m 14,6 km/h (3 Bft)
01.10.2014 15:54 22,9 C 20,0 C 65 % 1025,8 hPa 0,0 l/m 2 min 0 min 408 W/m 12,6 km/h (3 Bft)
01.10.2014 15:56 22,9 C 20,0 C 66 % 1025,8 hPa 0,0 l/m 2 min 0 min 475 W/m 12,6 km/h (3 Bft)
01.10.2014 15:58 23,0 C 20,0 C 66 % 1025,8 hPa 0,0 l/m 2 min 0 min 462 W/m 16,7 km/h (3 Bft)
01.10.2014 16:00 23,0 C 20,0 C 66 % 1025,8 hPa 0,0 l/m 2 min 0 min 438 W/m 16,7 km/h (3 Bft)
01.10.2014 16:02 23,0 C 19,4 C 66 % 1025,8 hPa 0,0 l/m 2 min 0 min 226 W/m 12,6 km/h (3 Bft)
01.10.2014 16:04 23,0 C 19,4 C 66 % 1025,8 hPa 0,0 l/m 0 min 0 min 162 W/m 14,6 km/h (3 Bft)
01.10.2014 16:06 22,9 C 19,4 C 66 % 1025,8 hPa 0,0 l/m 2 min 0 min 313 W/m 12,6 km/h (3 Bft)
01.10.2014 16:08 22,9 C 19,4 C 65 % 1025,8 hPa 0,0 l/m 2 min 0 min 403 W/m 14,6 km/h (3 Bft)
01.10.2014 16:10 22,8 C 19,4 C 66 % 1025,8 hPa 0,0 l/m 2 min 0 min 370 W/m 10,5 km/h (2 Bft)
01.10.2014 16:12 22,8 C 19,4 C 66 % 1025,8 hPa 0,0 l/m 2 min 0 min 345 W/m 8,4 km/h (2 Bft)
01.10.2014 16:14 22,8 C 19,4 C 67 % 1025,8 hPa 0,0 l/m 2 min 0 min 404 W/m 14,6 km/h (3 Bft)
01.10.2014 16:16 22,8 C 19,4 C 66 % 1025,8 hPa 0,0 l/m 2 min 0 min 413 W/m 12,6 km/h (3 Bft)
01.10.2014 16:18 22,8 C 19,4 C 66 % 1025,8 hPa 0,0 l/m 2 min 0 min 378 W/m 6,3 km/h (2 Bft)
01.10.2014 16:20 22,8 C 19,4 C 66 % 1025,8 hPa 0,0 l/m 2 min 0 min 391 W/m 10,5 km/h (2 Bft)
01.10.2014 16:22 22,8 C 20,0 C 67 % 1025,8 hPa 0,0 l/m 2 min 0 min 400 W/m 12,6 km/h (3 Bft)
01.10.2014 16:24 22,8 C 20,0 C 66 % 1025,8 hPa 0,0 l/m 2 min 0 min 389 W/m 10,5 km/h (2 Bft)
01.10.2014 16:26 22,9 C 19,4 C 66 % 1025,8 hPa 0,0 l/m 2 min 0 min 371 W/m 8,4 km/h (2 Bft)
01.10.2014 16:28 22,9 C 19,4 C 66 % 1025,8 hPa 0,0 l/m 2 min 0 min 366 W/m 6,3 km/h (2 Bft)
01.10.2014 16:30 22,9 C 19,4 C 66 % 1025,8 hPa 0,0 l/m 2 min 0 min 361 W/m 10,5 km/h (2 Bft)
01.10.2014 16:32 22,9 C 19,4 C 66 % 1025,8 hPa 0,0 l/m 2 min 0 min 364 W/m 12,6 km/h (3 Bft)
01.10.2014 16:34 22,9 C 19,4 C 66 % 1025,8 hPa 0,0 l/m 2 min 0 min 369 W/m 10,5 km/h (2 Bft)
01.10.2014 16:36 22,9 C 19,4 C 65 % 1025,8 hPa 0,0 l/m 2 min 0 min 363 W/m 6,3 km/h (2 Bft)
01.10.2014 16:38 23,0 C 19,4 C 65 % 1025,7 hPa 0,0 l/m 2 min 0 min 352 W/m 8,4 km/h (2 Bft)
01.10.2014 16:40 23,0 C 19,4 C 66 % 1025,7 hPa 0,0 l/m 2 min 0 min 338 W/m 12,6 km/h (3 Bft)
01.10.2014 16:42 23,0 C 19,4 C 66 % 1025,8 hPa 0,0 l/m 2 min 0 min 317 W/m 10,5 km/h (2 Bft)
01.10.2014 16:44 23,1 C 19,4 C 66 % 1025,7 hPa 0,0 l/m 2 min 0 min 242 W/m 8,4 km/h (2 Bft)
01.10.2014 16:46 23,0 C 19,4 C 65 % 1025,8 hPa 0,0 l/m 0 min 0 min 165 W/m 8,4 km/h (2 Bft)
01.10.2014 16:48 23,0 C 18,9 C 65 % 1025,7 hPa 0,0 l/m 2 min 0 min 186 W/m 6,3 km/h (2 Bft)
01.10.2014 16:50 23,0 C 18,9 C 65 % 1025,8 hPa 0,0 l/m 2 min 0 min 170 W/m 6,3 km/h (2 Bft)
01.10.2014 16:52 23,0 C 18,9 C 65 % 1025,8 hPa 0,0 l/m 2 min 0 min 276 W/m 12,6 km/h (3 Bft)
01.10.2014 16:54 22,9 C 18,9 C 65 % 1025,8 hPa 0,0 l/m 2 min 0 min 302 W/m 8,4 km/h (2 Bft)
01.10.2014 16:56 22,9 C 18,9 C 64 % 1025,8 hPa 0,0 l/m 2 min 0 min 300 W/m 10,5 km/h (2 Bft)
01.10.2014 16:58 22,8 C 18,9 C 64 % 1025,8 hPa 0,0 l/m 2 min 0 min 286 W/m 10,5 km/h (2 Bft)
01.10.2014 17:00 22,8 C 18,9 C 64 % 1025,8 hPa 0,0 l/m 2 min 0 min 276 W/m 8,4 km/h (2 Bft)
01.10.2014 17:02 22,8 C 18,9 C 65 % 1025,8 hPa 0,0 l/m 2 min 0 min 279 W/m 8,4 km/h (2 Bft)
01.10.2014 17:04 22,8 C 18,9 C 65 % 1025,7 hPa 0,0 l/m 2 min 0 min 284 W/m 6,3 km/h (2 Bft)
01.10.2014 17:06 22,8 C 18,9 C 64 % 1025,8 hPa 0,0 l/m 2 min 0 min 254 W/m 10,5 km/h (2 Bft)
01.10.2014 17:08 22,7 C 18,9 C 65 % 1025,8 hPa 0,0 l/m 0 min 0 min 132 W/m 6,3 km/h (2 Bft)
01.10.2014 17:10 22,7 C 18,9 C 65 % 1025,8 hPa 0,0 l/m 0 min 0 min 98 W/m 12,6 km/h (3 Bft)
01.10.2014 17:12 22,6 C 18,9 C 65 % 1025,9 hPa 0,0 l/m 0 min 0 min 87 W/m 10,5 km/h (2 Bft)
01.10.2014 17:14 22,5 C 18,3 C 66 % 1025,9 hPa 0,0 l/m 0 min 0 min 84 W/m 12,6 km/h (3 Bft)
01.10.2014 17:16 22,4 C 18,3 C 66 % 1025,8 hPa 0,0 l/m 0 min 0 min 95 W/m 12,6 km/h (3 Bft)
01.10.2014 17:18 22,3 C 18,3 C 65 % 1025,8 hPa 0,0 l/m 0 min 0 min 136 W/m 12,6 km/h (3 Bft)
01.10.2014 17:20 22,2 C 18,3 C 65 % 1025,8 hPa 0,0 l/m 0 min 0 min 125 W/m 10,5 km/h (2 Bft)
01.10.2014 17:22 22,2 C 18,3 C 66 % 1025,8 hPa 0,0 l/m 2 min 0 min 171 W/m 6,3 km/h (2 Bft)
01.10.2014 17:24 22,1 C 18,3 C 67 % 1025,8 hPa 0,0 l/m 2 min 0 min 198 W/m 8,4 km/h (2 Bft)
01.10.2014 17:26 22,1 C 18,3 C 67 % 1025,8 hPa 0,0 l/m 2 min 0 min 205 W/m 6,3 km/h (2 Bft)
01.10.2014 17:28 22,1 C 18,3 C 67 % 1025,8 hPa 0,0 l/m 2 min 0 min 205 W/m 10,5 km/h (2 Bft)
01.10.2014 17:30 22,0 C 18,3 C 68 % 1025,7 hPa 0,0 l/m 2 min 0 min 163 W/m 6,3 km/h (2 Bft)
01.10.2014 17:32 22,0 C 18,3 C 68 % 1025,7 hPa 0,0 l/m 2 min 0 min 163 W/m 4,2 km/h (1 Bft)
01.10.2014 17:34 22,0 C 18,3 C 68 % 1025,8 hPa 0,0 l/m 0 min 0 min 105 W/m 6,3 km/h (2 Bft)
01.10.2014 17:36 21,9 C 18,3 C 67 % 1025,8 hPa 0,0 l/m 0 min 0 min 100 W/m 4,2 km/h (1 Bft)
01.10.2014 17:38 21,9 C 17,8 C 68 % 1025,8 hPa 0,0 l/m 0 min 0 min 86 W/m 6,3 km/h (2 Bft)
01.10.2014 17:40 21,9 C 17,8 C 68 % 1025,8 hPa 0,0 l/m 0 min 0 min 86 W/m 6,3 km/h (2 Bft)
01.10.2014 17:42 21,8 C 17,8 C 68 % 1025,8 hPa 0,0 l/m 2 min 0 min 115 W/m 6,3 km/h (2 Bft)
01.10.2014 17:44 21,8 C 17,8 C 68 % 1025,8 hPa 0,0 l/m 2 min 0 min 136 W/m 6,3 km/h (2 Bft)
01.10.2014 17:46 21,8 C 17,8 C 68 % 1025,8 hPa 0,0 l/m 2 min 0 min 140 W/m 6,3 km/h (2 Bft)
01.10.2014 17:48 21,8 C 17,8 C 68 % 1025,7 hPa 0,0 l/m 2 min 0 min 144 W/m 4,2 km/h (1 Bft)
01.10.2014 17:50 21,8 C 17,8 C 69 % 1025,8 hPa 0,0 l/m 2 min 0 min 140 W/m 4,2 km/h (1 Bft)
01.10.2014 17:52 21,7 C 17,8 C 69 % 1025,8 hPa 0,0 l/m 2 min 0 min 130 W/m 2,1 km/h (1 Bft)
01.10.2014 17:54 21,7 C 17,8 C 70 % 1025,8 hPa 0,0 l/m 2 min 0 min 121 W/m 4,2 km/h (1 Bft)
01.10.2014 17:56 21,7 C 17,8 C 69 % 1025,8 hPa 0,0 l/m 2 min 0 min 112 W/m 6,3 km/h (2 Bft)
01.10.2014 17:58 21,7 C 17,8 C 69 % 1025,9 hPa 0,0 l/m 2 min 0 min 105 W/m 8,4 km/h (2 Bft)
01.10.2014 18:00 21,7 C 17,8 C 69 % 1025,8 hPa 0,0 l/m 2 min 0 min 99 W/m 4,2 km/h (1 Bft)
01.10.2014 18:02 21,6 C 17,2 C 70 % 1025,8 hPa 0,0 l/m 2 min 0 min 95 W/m 8,4 km/h (2 Bft)
01.10.2014 18:05 21,6 C 17,2 C 70 % 1025,8 hPa 0,0 l/m 2 min 0 min 88 W/m 6,3 km/h (2 Bft)
01.10.2014 18:06 21,6 C 17,2 C 70 % 1025,8 hPa 0,0 l/m 1 min 0 min 81 W/m 2,1 km/h (1 Bft)
01.10.2014 18:08 21,5 C 17,2 C 70 % 1025,8 hPa 0,0 l/m 0 min 0 min 77 W/m 4,2 km/h (1 Bft)
01.10.2014 18:10 21,4 C 17,2 C 70 % 1025,8 hPa 0,0 l/m 0 min 0 min 72 W/m 2,1 km/h (1 Bft)
01.10.2014 18:12 21,4 C 17,2 C 70 % 1025,8 hPa 0,0 l/m 0 min 0 min 68 W/m 6,3 km/h (2 Bft)
01.10.2014 18:14 21,3 C 17,2 C 70 % 1025,9 hPa 0,0 l/m 0 min 0 min 61 W/m 4,2 km/h (1 Bft)
01.10.2014 18:16 21,3 C 16,7 C 70 % 1025,9 hPa 0,0 l/m 0 min 0 min 58 W/m 6,3 km/h (2 Bft)
01.10.2014 18:18 21,2 C 16,7 C 70 % 1025,9 hPa 0,0 l/m 0 min 0 min 55 W/m 2,1 km/h (1 Bft)
01.10.2014 18:20 21,2 C 16,7 C 70 % 1025,9 hPa 0,0 l/m 0 min 0 min 50 W/m 4,2 km/h (1 Bft)
01.10.2014 18:22 21,2 C 16,7 C 70 % 1026,0 hPa 0,0 l/m 0 min 0 min 47 W/m 6,3 km/h (2 Bft)
01.10.2014 18:24 21,1 C 16,7 C 71 % 1026,0 hPa 0,0 l/m 0 min 0 min 44 W/m 4,2 km/h (1 Bft)
01.10.2014 18:26 21,1 C 16,7 C 71 % 1026,0 hPa 0,0 l/m 0 min 0 min 42 W/m 4,2 km/h (1 Bft)
01.10.2014 18:28 21,1 C 16,7 C 71 % 1026,0 hPa 0,0 l/m 0 min 0 min 39 W/m 2,1 km/h (1 Bft)
01.10.2014 18:30 21,0 C 16,7 C 72 % 1026,0 hPa 0,0 l/m 0 min 0 min 37 W/m 4,2 km/h (1 Bft)
01.10.2014 18:32 21,0 C 16,7 C 72 % 1026,1 hPa 0,0 l/m 0 min 0 min 35 W/m 2,1 km/h (1 Bft)
01.10.2014 18:34 20,9 C 16,1 C 72 % 1026,1 hPa 0,0 l/m 0 min 0 min 33 W/m 4,2 km/h (1 Bft)
01.10.2014 18:36 20,9 C 16,1 C 72 % 1026,0 hPa 0,0 l/m 0 min 0 min 32 W/m 2,1 km/h (1 Bft)
01.10.2014 18:38 20,8 C 16,1 C 72 % 1026,0 hPa 0,0 l/m 0 min 0 min 30 W/m 2,1 km/h (1 Bft)
01.10.2014 18:40 20,8 C 16,1 C 73 % 1026,1 hPa 0,0 l/m 0 min 0 min 29 W/m 2,1 km/h (1 Bft)
01.10.2014 18:42 20,7 C 16,1 C 73 % 1026,1 hPa 0,0 l/m 0 min 0 min 28 W/m 2,1 km/h (1 Bft)
01.10.2014 18:44 20,7 C 16,1 C 73 % 1026,1 hPa 0,0 l/m 0 min 0 min 26 W/m 2,1 km/h (1 Bft)
01.10.2014 18:46 20,6 C 16,1 C 74 % 1026,1 hPa 0,0 l/m 0 min 0 min 25 W/m 2,1 km/h (1 Bft)
01.10.2014 18:48 20,6 C 15,6 C 74 % 1026,2 hPa 0,0 l/m 0 min 0 min 24 W/m 2,1 km/h (1 Bft)
01.10.2014 18:50 20,4 C 15,6 C 75 % 1026,2 hPa 0,0 l/m 0 min 0 min 22 W/m 2,1 km/h (1 Bft)
01.10.2014 18:52 20,4 C 15,6 C 75 % 1026,2 hPa 0,0 l/m 0 min 0 min 20 W/m 2,1 km/h (1 Bft)
01.10.2014 18:54 20,3 C 15,6 C 75 % 1026,3 hPa 0,0 l/m 2 min 0 min 19 W/m 0,0 km/h (0 Bft)
01.10.2014 18:56 20,2 C 15,6 C 75 % 1026,3 hPa 0,0 l/m 2 min 0 min 17 W/m 2,1 km/h (1 Bft)
01.10.2014 18:58 20,1 C 15,6 C 76 % 1026,3 hPa 0,0 l/m 2 min 0 min 14 W/m 0,0 km/h (0 Bft)
01.10.2014 19:00 20,0 C 15,0 C 76 % 1026,3 hPa 0,0 l/m 2 min 0 min 14 W/m 0,0 km/h (0 Bft)
01.10.2014 19:02 19,9 C 15,0 C 76 % 1026,3 hPa 0,0 l/m 0 min 0 min 12 W/m 0,0 km/h (0 Bft)
01.10.2014 19:04 19,8 C 15,0 C 76 % 1026,2 hPa 0,0 l/m 0 min 0 min 11 W/m 0,0 km/h (0 Bft)
01.10.2014 19:06 19,8 C 15,0 C 76 % 1026,2 hPa 0,0 l/m 0 min 0 min 9 W/m 0,0 km/h (0 Bft)
01.10.2014 19:08 19,7 C 15,0 C 77 % 1026,2 hPa 0,0 l/m 0 min 0 min 7 W/m 0,0 km/h (0 Bft)
01.10.2014 19:10 19,6 C 15,0 C 77 % 1026,3 hPa 0,0 l/m 0 min 0 min 6 W/m 0,0 km/h (0 Bft)
01.10.2014 19:12 19,6 C 15,0 C 77 % 1026,3 hPa 0,0 l/m 0 min 0 min 5 W/m 0,0 km/h (0 Bft)
01.10.2014 19:14 19,5 C 15,0 C 77 % 1026,3 hPa 0,0 l/m 0 min 0 min 4 W/m 2,1 km/h (1 Bft)
01.10.2014 19:16 19,4 C 14,4 C 77 % 1026,3 hPa 0,0 l/m 0 min 0 min 0 W/m 2,1 km/h (1 Bft)
01.10.2014 19:18 19,3 C 14,4 C 77 % 1026,3 hPa 0,0 l/m 0 min 0 min 0 W/m 2,1 km/h (1 Bft)
01.10.2014 19:20 19,3 C 14,4 C 78 % 1026,4 hPa 0,0 l/m 0 min 0 min 0 W/m 2,1 km/h (1 Bft)
01.10.2014 19:22 19,2 C 14,4 C 78 % 1026,4 hPa 0,0 l/m 0 min 0 min 0 W/m 2,1 km/h (1 Bft)
01.10.2014 19:24 19,1 C 14,4 C 78 % 1026,4 hPa 0,0 l/m 0 min 0 min 0 W/m 0,0 km/h (0 Bft)
01.10.2014 19:26 19,0 C 14,4 C 78 % 1026,4 hPa 0,0 l/m 0 min 0 min 0 W/m 0,0 km/h (0 Bft)
01.10.2014 19:28 18,9 C 14,4 C 78 % 1026,4 hPa 0,0 l/m 0 min 0 min 0 W/m 0,0 km/h (0 Bft)
01.10.2014 19:30 18,8 C 14,4 C 78 % 1026,5 hPa 0,0 l/m 0 min 0 min 0 W/m 0,0 km/h (0 Bft)
01.10.2014 19:32 18,7 C 14,4 C 79 % 1026,5 hPa 0,0 l/m 0 min 0 min 0 W/m 2,1 km/h (1 Bft)
01.10.2014 19:34 18,6 C 14,4 C 79 % 1026,5 hPa 0,0 l/m 0 min 0 min 0 W/m 2,1 km/h (1 Bft)
01.10.2014 19:36 18,6 C 13,9 C 79 % 1026,5 hPa 0,0 l/m 0 min 0 min 0 W/m 2,1 km/h (1 Bft)
01.10.2014 19:38 18,5 C 13,9 C 80 % 1026,5 hPa 0,0 l/m 0 min 0 min 0 W/m 2,1 km/h (1 Bft)
01.10.2014 19:40 18,4 C 13,9 C 80 % 1026,5 hPa 0,0 l/m 0 min 0 min 0 W/m 2,1 km/h (1 Bft)
01.10.2014 19:42 18,4 C 13,9 C 81 % 1026,5 hPa 0,0 l/m 0 min 0 min 0 W/m 0,0 km/h (0 Bft)
01.10.2014 19:44 18,3 C 13,9 C 81 % 1026,5 hPa 0,0 l/m 0 min 0 min 0 W/m 0,0 km/h (0 Bft)
01.10.2014 19:46 18,2 C 13,9 C 80 % 1026,5 hPa 0,0 l/m 0 min 0 min 0 W/m 0,0 km/h (0 Bft)
01.10.2014 19:48 18,1 C 13,9 C 81 % 1026,5 hPa 0,0 l/m 0 min 0 min 0 W/m 0,0 km/h (0 Bft)
01.10.2014 19:50 18,1 C 13,9 C 81 % 1026,5 hPa 0,0 l/m 0 min 0 min 0 W/m 2,1 km/h (1 Bft)
01.10.2014 19:52 17,9 C 13,9 C 81 % 1026,5 hPa 0,0 l/m 0 min 0 min 0 W/m 2,1 km/h (1 Bft)
01.10.2014 19:54 17,9 C 13,9 C 82 % 1026,5 hPa 0,0 l/m 0 min 0 min 0 W/m 0,0 km/h (0 Bft)
01.10.2014 19:56 17,8 C 13,9 C 81 % 1026,5 hPa 0,0 l/m 0 min 0 min 0 W/m 0,0 km/h (0 Bft)
01.10.2014 19:58 17,7 C 13,9 C 82 % 1026,5 hPa 0,0 l/m 0 min 0 min 0 W/m 0,0 km/h (0 Bft)
01.10.2014 20:00 17,6 C 13,9 C 82 % 1026,5 hPa 0,0 l/m 0 min 0 min 0 W/m 0,0 km/h (0 Bft)
01.10.2014 20:02 17,6 C 13,9 C 82 % 1026,5 hPa 0,0 l/m 0 min 0 min 0 W/m 0,0 km/h (0 Bft)
01.10.2014 20:04 17,4 C 13,9 C 82 % 1026,5 hPa 0,0 l/m 0 min 0 min 0 W/m 0,0 km/h (0 Bft)
01.10.2014 20:06 17,4 C 13,9 C 83 % 1026,6 hPa 0,0 l/m 0 min 0 min 0 W/m 0,0 km/h (0 Bft)
01.10.2014 20:08 17,3 C 13,9 C 83 % 1026,6 hPa 0,0 l/m 0 min 0 min 0 W/m 0,0 km/h (0 Bft)
01.10.2014 20:10 17,2 C 13,9 C 83 % 1026,5 hPa 0,0 l/m 0 min 0 min 0 W/m 0,0 km/h (0 Bft)
01.10.2014 20:12 17,2 C 13,3 C 83 % 1026,7 hPa 0,0 l/m 0 min 0 min 0 W/m 0,0 km/h (0 Bft)
01.10.2014 20:14 17,1 C 13,3 C 83 % 1026,6 hPa 0,0 l/m 0 min 0 min 0 W/m 0,0 km/h (0 Bft)
01.10.2014 20:16 17,0 C 13,3 C 84 % 1026,7 hPa 0,0 l/m 0 min 0 min 0 W/m 0,0 km/h (0 Bft)
01.10.2014 20:18 16,9 C 13,3 C 84 % 1026,6 hPa 0,0 l/m 0 min 0 min 0 W/m 0,0 km/h (0 Bft)
01.10.2014 20:20 16,9 C 13,3 C 84 % 1026,6 hPa 0,0 l/m 0 min 0 min 0 W/m 0,0 km/h (0 Bft)
01.10.2014 20:22 16,8 C 13,3 C 84 % 1026,7 hPa 0,0 l/m 0 min 0 min 0 W/m 0,0 km/h (0 Bft)
01.10.2014 20:24 16,7 C 13,3 C 85 % 1026,7 hPa 0,0 l/m 0 min 0 min 0 W/m 0,0 km/h (0 Bft)
01.10.2014 20:26 16,7 C 13,3 C 85 % 1026,7 hPa 0,0 l/m 0 min 0 min 0 W/m 0,0 km/h (0 Bft)
01.10.2014 20:28 16,6 C 13,3 C 85 % 1026,7 hPa 0,0 l/m 0 min 0 min 0 W/m 0,0 km/h (0 Bft)
01.10.2014 20:30 16,5 C 13,3 C 85 % 1026,7 hPa 0,0 l/m 0 min 0 min 0 W/m 0,0 km/h (0 Bft)
01.10.2014 20:32 16,4 C 13,3 C 86 % 1026,7 hPa 0,0 l/m 0 min 0 min 0 W/m 0,0 km/h (0 Bft)
01.10.2014 20:34 16,4 C 13,3 C 86 % 1026,7 hPa 0,0 l/m 0 min 0 min 0 W/m 0,0 km/h (0 Bft)
01.10.2014 20:36 16,3 C 13,3 C 86 % 1026,6 hPa 0,0 l/m 0 min 0 min 0 W/m 0,0 km/h (0 Bft)
01.10.2014 20:38 16,3 C 13,3 C 86 % 1026,8 hPa 0,0 l/m 0 min 0 min 0 W/m 0,0 km/h (0 Bft)
01.10.2014 20:40 16,2 C 13,3 C 86 % 1026,7 hPa 0,0 l/m 0 min 0 min 0 W/m 0,0 km/h (0 Bft)
01.10.2014 20:42 16,2 C 13,3 C 86 % 1026,7 hPa 0,0 l/m 0 min 0 min 0 W/m 0,0 km/h (0 Bft)
01.10.2014 20:44 16,1 C 13,3 C 86 % 1026,8 hPa 0,0 l/m 0 min 0 min 0 W/m 2,1 km/h (1 Bft)
01.10.2014 20:46 16,1 C 12,8 C 86 % 1026,8 hPa 0,0 l/m 0 min 0 min 0 W/m 2,1 km/h (1 Bft)
01.10.2014 20:48 16,1 C 12,8 C 87 % 1026,7 hPa 0,0 l/m 0 min 0 min 0 W/m 0,0 km/h (0 Bft)
01.10.2014 20:50 16,0 C 12,8 C 87 % 1026,7 hPa 0,0 l/m 0 min 0 min 0 W/m 0,0 km/h (0 Bft)
01.10.2014 20:52 15,9 C 12,8 C 87 % 1026,8 hPa 0,0 l/m 0 min 0 min 0 W/m 0,0 km/h (0 Bft)
01.10.2014 20:54 15,9 C 12,8 C 87 % 1026,8 hPa 0,0 l/m 0 min 0 min 0 W/m 0,0 km/h (0 Bft)
01.10.2014 20:56 15,8 C 12,8 C 87 % 1026,8 hPa 0,0 l/m 0 min 0 min 0 W/m 0,0 km/h (0 Bft)
01.10.2014 20:58 15,8 C 12,8 C 87 % 1026,9 hPa 0,0 l/m 0 min 0 min 0 W/m 0,0 km/h (0 Bft)
01.10.2014 21:00 15,7 C 12,8 C 87 % 1026,8 hPa 0,0 l/m 0 min 0 min 0 W/m 0,0 km/h (0 Bft)
01.10.2014 21:02 15,7 C 12,8 C 87 % 1026,9 hPa 0,0 l/m 0 min 0 min 0 W/m 2,1 km/h (1 Bft)
01.10.2014 21:04 15,6 C 12,8 C 88 % 1026,9 hPa 0,0 l/m 0 min 0 min 0 W/m 2,1 km/h (1 Bft)
01.10.2014 21:06 15,6 C 12,8 C 88 % 1026,9 hPa 0,0 l/m 0 min 0 min 0 W/m 2,1 km/h (1 Bft)
01.10.2014 21:08 15,6 C 12,8 C 88 % 1026,9 hPa 0,0 l/m 0 min 0 min 0 W/m 2,1 km/h (1 Bft)
01.10.2014 21:10 15,5 C 12,8 C 88 % 1026,9 hPa 0,0 l/m 0 min 0 min 0 W/m 2,1 km/h (1 Bft)
01.10.2014 21:12 15,4 C 12,8 C 88 % 1026,9 hPa 0,0 l/m 0 min 0 min 0 W/m 2,1 km/h (1 Bft)
01.10.2014 21:14 15,4 C 12,8 C 88 % 1027,0 hPa 0,0 l/m 0 min 0 min 0 W/m 2,1 km/h (1 Bft)
01.10.2014 21:16 15,4 C 12,8 C 88 % 1026,9 hPa 0,0 l/m 0 min 0 min 0 W/m 0,0 km/h (0 Bft)
01.10.2014 21:18 15,3 C 12,8 C 88 % 1027,0 hPa 0,0 l/m 0 min 0 min 0 W/m 2,1 km/h (1 Bft)
01.10.2014 21:20 15,3 C 12,8 C 89 % 1027,1 hPa 0,0 l/m 0 min 0 min 0 W/m 2,1 km/h (1 Bft)
01.10.2014 21:22 15,3 C 12,8 C 89 % 1027,0 hPa 0,0 l/m 0 min 0 min 0 W/m 4,2 km/h (1 Bft)
01.10.2014 21:24 15,3 C 12,8 C 89 % 1027,0 hPa 0,0 l/m 0 min 0 min 0 W/m 2,1 km/h (1 Bft)
01.10.2014 21:26 15,2 C 12,8 C 89 % 1027,0 hPa 0,0 l/m 0 min 0 min 0 W/m 2,1 km/h (1 Bft)
01.10.2014 21:28 15,2 C 12,8 C 89 % 1027,0 hPa 0,0 l/m 0 min 0 min 0 W/m 2,1 km/h (1 Bft)
01.10.2014 21:30 15,2 C 12,8 C 89 % 1027,0 hPa 0,0 l/m 0 min 0 min 0 W/m 0,0 km/h (0 Bft)
01.10.2014 21:32 15,1 C 12,8 C 89 % 1027,1 hPa 0,0 l/m 0 min 0 min 0 W/m 0,0 km/h (0 Bft)
01.10.2014 21:34 15,1 C 12,8 C 89 % 1027,1 hPa 0,0 l/m 0 min 0 min 0 W/m 0,0 km/h (0 Bft)
01.10.2014 21:36 15,1 C 12,8 C 89 % 1027,1 hPa 0,0 l/m 0 min 0 min 0 W/m 0,0 km/h (0 Bft)
01.10.2014 21:38 15,0 C 12,8 C 89 % 1027,2 hPa 0,0 l/m 0 min 0 min 0 W/m 0,0 km/h (0 Bft)
01.10.2014 21:40 15,0 C 12,8 C 90 % 1027,2 hPa 0,0 l/m 0 min 0 min 0 W/m 0,0 km/h (0 Bft)
01.10.2014 21:42 15,0 C 12,8 C 90 % 1027,2 hPa 0,0 l/m 0 min 0 min 0 W/m 2,1 km/h (1 Bft)
01.10.2014 21:44 14,9 C 12,8 C 90 % 1027,2 hPa 0,0 l/m 0 min 0 min 0 W/m 2,1 km/h (1 Bft)
01.10.2014 21:46 14,9 C 12,2 C 90 % 1027,2 hPa 0,0 l/m 0 min 0 min 0 W/m 2,1 km/h (1 Bft)
01.10.2014 21:48 14,9 C 12,2 C 90 % 1027,1 hPa 0,0 l/m 0 min 0 min 0 W/m 2,1 km/h (1 Bft)
01.10.2014 21:50 14,9 C 12,2 C 90 % 1027,2 hPa 0,0 l/m 0 min 0 min 0 W/m 2,1 km/h (1 Bft)
01.10.2014 21:52 14,8 C 12,2 C 90 % 1027,1 hPa 0,0 l/m 0 min 0 min 0 W/m 2,1 km/h (1 Bft)
01.10.2014 21:54 14,8 C 12,2 C 90 % 1027,1 hPa 0,0 l/m 0 min 0 min 0 W/m 2,1 km/h (1 Bft)
01.10.2014 21:56 14,8 C 12,2 C 91 % 1027,1 hPa 0,0 l/m 0 min 0 min 0 W/m 2,1 km/h (1 Bft)
01.10.2014 21:58 14,7 C 12,2 C 91 % 1027,1 hPa 0,0 l/m 0 min 0 min 0 W/m 2,1 km/h (1 Bft)
01.10.2014 22:00 14,7 C 12,2 C 91 % 1027,1 hPa 0,0 l/m 0 min 0 min 0 W/m 4,2 km/h (1 Bft)
01.10.2014 22:02 14,7 C 12,2 C 91 % 1027,2 hPa 0,0 l/m 0 min 0 min 0 W/m 4,2 km/h (1 Bft)
01.10.2014 22:04 14,6 C 12,2 C 90 % 1027,1 hPa 0,0 l/m 0 min 0 min 0 W/m 2,1 km/h (1 Bft)
01.10.2014 22:06 14,6 C 12,2 C 90 % 1027,1 hPa 0,0 l/m 0 min 0 min 0 W/m 4,2 km/h (1 Bft)
01.10.2014 22:08 14,6 C 12,2 C 91 % 1027,1 hPa 0,0 l/m 0 min 0 min 0 W/m 2,1 km/h (1 Bft)
01.10.2014 22:10 14,5 C 12,2 C 91 % 1027,1 hPa 0,0 l/m 0 min 0 min 0 W/m 2,1 km/h (1 Bft)
01.10.2014 22:12 14,5 C 12,2 C 91 % 1027,1 hPa 0,0 l/m 0 min 0 min 0 W/m 2,1 km/h (1 Bft)
01.10.2014 22:14 14,4 C 12,2 C 91 % 1027,1 hPa 0,0 l/m 0 min 0 min 0 W/m 2,1 km/h (1 Bft)
01.10.2014 22:16 14,4 C 12,2 C 91 % 1027,1 hPa 0,0 l/m 0 min 0 min 0 W/m 2,1 km/h (1 Bft)
01.10.2014 22:18 14,4 C 12,2 C 91 % 1027,2 hPa 0,0 l/m 0 min 0 min 0 W/m 2,1 km/h (1 Bft)
01.10.2014 22:20 14,4 C 12,2 C 91 % 1027,1 hPa 0,0 l/m 0 min 0 min 0 W/m 4,2 km/h (1 Bft)
01.10.2014 22:22 14,4 C 12,2 C 91 % 1027,1 hPa 0,0 l/m 0 min 0 min 0 W/m 2,1 km/h (1 Bft)
01.10.2014 22:24 14,3 C 12,2 C 91 % 1027,1 hPa 0,0 l/m 0 min 0 min 0 W/m 2,1 km/h (1 Bft)
01.10.2014 22:26 14,3 C 12,2 C 91 % 1027,1 hPa 0,0 l/m 0 min 0 min 0 W/m 2,1 km/h (1 Bft)
01.10.2014 22:28 14,3 C 12,2 C 91 % 1027,1 hPa 0,0 l/m 0 min 0 min 0 W/m 2,1 km/h (1 Bft)
01.10.2014 22:30 14,2 C 12,2 C 91 % 1027,1 hPa 0,0 l/m 0 min 0 min 0 W/m 2,1 km/h (1 Bft)
01.10.2014 22:32 14,2 C 12,2 C 91 % 1027,2 hPa 0,0 l/m 0 min 0 min 0 W/m 2,1 km/h (1 Bft)
01.10.2014 22:34 14,2 C 12,2 C 91 % 1027,2 hPa 0,0 l/m 0 min 0 min 0 W/m 4,2 km/h (1 Bft)
01.10.2014 22:36 14,2 C 12,2 C 91 % 1027,2 hPa 0,0 l/m 0 min 0 min 0 W/m 2,1 km/h (1 Bft)
01.10.2014 22:38 14,2 C 12,2 C 91 % 1027,3 hPa 0,0 l/m 0 min 0 min 0 W/m 4,2 km/h (1 Bft)
01.10.2014 22:40 14,2 C 12,2 C 92 % 1027,3 hPa 0,0 l/m 0 min 0 min 0 W/m 2,1 km/h (1 Bft)
01.10.2014 22:42 14,2 C 12,2 C 92 % 1027,3 hPa 0,0 l/m 0 min 0 min 0 W/m 2,1 km/h (1 Bft)
01.10.2014 22:44 14,2 C 12,2 C 92 % 1027,3 hPa 0,0 l/m 0 min 0 min 0 W/m 2,1 km/h (1 Bft)
01.10.2014 22:46 14,1 C 12,2 C 92 % 1027,3 hPa 0,0 l/m 0 min 0 min 0 W/m 0,0 km/h (0 Bft)
01.10.2014 22:48 14,1 C 12,2 C 92 % 1027,3 hPa 0,0 l/m 0 min 0 min 0 W/m 2,1 km/h (1 Bft)
01.10.2014 22:50 14,1 C 12,2 C 92 % 1027,2 hPa 0,0 l/m 0 min 0 min 0 W/m 2,1 km/h (1 Bft)
01.10.2014 22:52 14,0 C 12,2 C 92 % 1027,2 hPa 0,0 l/m 0 min 0 min 0 W/m 2,1 km/h (1 Bft)
01.10.2014 22:54 14,0 C 11,7 C 92 % 1027,2 hPa 0,0 l/m 0 min 0 min 0 W/m 2,1 km/h (1 Bft)
01.10.2014 22:56 13,9 C 11,7 C 92 % 1027,2 hPa 0,0 l/m 0 min 0 min 0 W/m 4,2 km/h (1 Bft)
01.10.2014 22:58 13,9 C 11,7 C 92 % 1027,2 hPa 0,0 l/m 0 min 0 min 0 W/m 4,2 km/h (1 Bft)
01.10.2014 23:00 13,9 C 11,7 C 92 % 1027,2 hPa 0,0 l/m 0 min 0 min 0 W/m 4,2 km/h (1 Bft)
01.10.2014 23:02 13,9 C 11,7 C 92 % 1027,2 hPa 0,0 l/m 0 min 0 min 0 W/m 4,2 km/h (1 Bft)
01.10.2014 23:04 13,8 C 11,7 C 92 % 1027,3 hPa 0,0 l/m 0 min 0 min 0 W/m 4,2 km/h (1 Bft)
01.10.2014 23:06 13,8 C 11,7 C 92 % 1027,2 hPa 0,0 l/m 0 min 0 min 0 W/m 2,1 km/h (1 Bft)
01.10.2014 23:08 13,8 C 11,7 C 92 % 1027,2 hPa 0,0 l/m 0 min 0 min 0 W/m 2,1 km/h (1 Bft)
01.10.2014 23:10 13,8 C 11,7 C 92 % 1027,2 hPa 0,0 l/m 0 min 0 min 0 W/m 2,1 km/h (1 Bft)
01.10.2014 23:12 13,7 C 11,7 C 92 % 1027,2 hPa 0,0 l/m 0 min 0 min 0 W/m 2,1 km/h (1 Bft)
01.10.2014 23:14 13,7 C 11,7 C 92 % 1027,3 hPa 0,0 l/m 0 min 0 min 0 W/m 2,1 km/h (1 Bft)
01.10.2014 23:16 13,7 C 11,7 C 92 % 1027,3 hPa 0,0 l/m 0 min 0 min 0 W/m 2,1 km/h (1 Bft)
01.10.2014 23:18 13,7 C 11,7 C 92 % 1027,3 hPa 0,0 l/m 0 min 0 min 0 W/m 2,1 km/h (1 Bft)
01.10.2014 23:20 13,7 C 11,7 C 92 % 1027,3 hPa 0,0 l/m 0 min 0 min 0 W/m 0,0 km/h (0 Bft)
01.10.2014 23:22 13,6 C 11,7 C 92 % 1027,3 hPa 0,0 l/m 0 min 0 min 0 W/m 2,1 km/h (1 Bft)
01.10.2014 23:24 13,6 C 11,7 C 92 % 1027,3 hPa 0,0 l/m 0 min 0 min 0 W/m 2,1 km/h (1 Bft)
01.10.2014 23:26 13,6 C 11,7 C 92 % 1027,3 hPa 0,0 l/m 0 min 0 min 0 W/m 2,1 km/h (1 Bft)
01.10.2014 23:28 13,6 C 11,7 C 93 % 1027,2 hPa 0,0 l/m 0 min 0 min 0 W/m 2,1 km/h (1 Bft)
01.10.2014 23:30 13,6 C 11,7 C 93 % 1027,2 hPa 0,0 l/m 0 min 0 min 0 W/m 2,1 km/h (1 Bft)
01.10.2014 23:32 13,6 C 11,7 C 93 % 1027,3 hPa 0,0 l/m 0 min 0 min 0 W/m 2,1 km/h (1 Bft)
01.10.2014 23:34 13,6 C 11,7 C 93 % 1027,3 hPa 0,0 l/m 0 min 0 min 0 W/m 2,1 km/h (1 Bft)
01.10.2014 23:36 13,5 C 11,7 C 93 % 1027,3 hPa 0,0 l/m 0 min 0 min 0 W/m 2,1 km/h (1 Bft)
01.10.2014 23:38 13,5 C 11,7 C 93 % 1027,2 hPa 0,0 l/m 0 min 0 min 0 W/m 4,2 km/h (1 Bft)
01.10.2014 23:40 13,5 C 11,7 C 93 % 1027,3 hPa 0,0 l/m 0 min 0 min 0 W/m 4,2 km/h (1 Bft)
01.10.2014 23:42 13,5 C 11,7 C 93 % 1027,3 hPa 0,0 l/m 0 min 0 min 0 W/m 4,2 km/h (1 Bft)
01.10.2014 23:44 13,4 C 11,7 C 93 % 1027,4 hPa 0,0 l/m 0 min 0 min 0 W/m 4,2 km/h (1 Bft)
01.10.2014 23:46 13,4 C 11,7 C 93 % 1027,3 hPa 0,0 l/m 0 min 0 min 0 W/m 4,2 km/h (1 Bft)
01.10.2014 23:48 13,4 C 11,7 C 93 % 1027,4 hPa 0,0 l/m 0 min 0 min 0 W/m 2,1 km/h (1 Bft)
01.10.2014 23:50 13,4 C 11,7 C 93 % 1027,4 hPa 0,0 l/m 0 min 0 min 0 W/m 4,2 km/h (1 Bft)
01.10.2014 23:52 13,4 C 11,7 C 93 % 1027,4 hPa 0,0 l/m 0 min 0 min 0 W/m 4,2 km/h (1 Bft)
01.10.2014 23:54 13,4 C 11,7 C 93 % 1027,4 hPa 0,0 l/m 0 min 0 min 0 W/m 4,2 km/h (1 Bft)
01.10.2014 23:56 13,4 C 11,7 C 93 % 1027,4 hPa 0,0 l/m 0 min 0 min 0 W/m 4,2 km/h (1 Bft)
01.10.2014 23:58 13,3 C 11,7 C 93 % 1027,4 hPa 0,0 l/m 0 min 0 min 0 W/m 4,2 km/h (1 Bft)
_ Min-Zeit 08:14 07:54 16:56 05:44 - - - - 00:00
Minimum _ 12,8 C 11,1 C 64 % 1025,1 hPa - - - - 0,0 km/h (0 Bft)
_ Max-Zeit 16:44 15:26 09:14 23:44 02:04 08:14 02:02 13:40 12:46
Maximum _ 23,1 C 20,0 C 99 % 1027,4 hPa 0,2 l/m 2 min 2 min 685 W/m 18,8 km/h
W-NW (3 Bft)
Durchschnitt _ 16,7 C 14,4 C 88 % 1026,0 hPa #0,8 l/m #8:18 h #46 min. 293 W/m 6,2 km/h (2 Bft)
© 2014 W. Hausmann